Another Hard Day at the Office Weather Stats

 
 
 

High monthly outside Temperature, 21.8 , C
Low monthly outside Temperature, 4.3 , C
High yearly outside Temperature, 21.8 , C
Low yearly outside Temperature, 0.7 , C

Low monthly barometer, 996.7 , mb
High monthly barometer, 1029.6 , mb
Low yearly barometer, 976.8 , mb
High yearly barometer 1032.1 , mb

High wind speed, 30.0 , mph
Time of High wind speed, 3:18 , mph
High monthly wind speed, 30.0 , mph
High yearly wind speed, 64.0 , mph

 

 




3123
                    Temp     Hi    Low   Out    Dew  Wind  Wind   Wind    Hi    Hi   Wind   Heat    THW                Rain    Heat    Cool    In     In    In     In     In   In Air  Wind  Wind    ISS   Arc.
  Date    Time     Out   Temp   Temp   Hum    Pt. Speed   Dir    Run Speed   Dir  Chill  Index  Index   Bar    Rain  Rate    D-D     D-D    Temp   Hum    Dew   Heat    EMC Density  Samp   Tx   Recept  Int.
---------------------------------------------------------------------------------------------------------------------------------------------------------------------------------------------------------------
19/04/14   0:05    6.1    6.1    6.1    76    2.1   5.0   NNE   0.42   7.0   NNE    4.4    5.8    4.2  1018.3  0.00   0.0   0.043   0.000   25.4    36    9.2   24.8   7.00 1.1753    112    1     98.2    5 
19/04/14   0:10    6.0    6.1    6.0    76    2.1   5.0     N   0.42   7.0     N    4.3    5.8    4.1  1018.3  0.00   0.0   0.043   0.000   25.3    36    9.2   24.7   7.00 1.1755    115    1    100.0    5 
19/04/14   0:15    5.9    6.0    5.9    77    2.2   5.0     N   0.42   7.0     N    4.2    5.7    4.0  1018.2  0.00   0.0   0.043   0.000   25.3    36    9.2   24.7   7.00 1.1755    115    1    100.0    5 
19/04/14   0:20    5.9    5.9    5.9    77    2.2   4.0     N   0.33   7.0     N    4.6    5.7    4.4  1018.1  0.00   0.0   0.043   0.000   25.3    36    9.1   24.7   7.00 1.1755    113    1     99.1    5 
19/04/14   0:25    5.8    5.9    5.8    77    2.1   5.0     N   0.42   7.0     N    4.1    5.6    3.9  1018.0  0.00   0.0   0.043   0.000   25.3    36    9.1   24.7   7.00 1.1755    116    1    100.0    5 
19/04/14   0:30    5.8    5.8    5.8    77    2.1   5.0     N   0.42   8.0     N    4.1    5.6    3.8  1018.0  0.00   0.0   0.044   0.000   25.2    36    9.1   24.6   7.00 1.1757    117    1    100.0    5 
19/04/14   0:35    5.7    5.8    5.7    77    1.9   6.0   NNE   0.50  10.0   NNE    3.5    5.4    3.3  1017.9  0.00   0.0   0.044   0.000   25.2    36    9.1   24.6   7.00 1.1756    117    1    100.0    5 
19/04/14   0:40    5.6    5.7    5.6    77    1.9   6.0   NNE   0.50   9.0     N    3.4    5.4    3.2  1017.8  0.00   0.0   0.044   0.000   25.2    36    9.0   24.6   7.00 1.1758    118    1    100.0    5 
19/04/14   0:45    5.6    5.6    5.6    77    1.8   6.0   NNE   0.50   9.0   NNE    3.4    5.3    3.2  1017.8  0.00   0.0   0.044   0.000   25.1    36    9.0   24.6   7.01 1.1760    116    1    100.0    5 
19/04/14   0:50    5.5    5.6    5.5    77    1.8   7.0   NNE   0.58   9.0   NNE    3.0    5.3    2.8  1017.7  0.00   0.0   0.045   0.000   25.1    36    9.0   24.6   7.01 1.1759    116    1    100.0    5 
19/04/14   0:55    5.4    5.5    5.4    78    1.9   8.0   NNE   0.67  13.0     N    2.7    5.3    2.5  1017.7  0.00   0.0   0.045   0.000   25.1    36    8.9   24.5   7.01 1.1761    117    1    100.0    5 
19/04/14   1:00    5.4    5.4    5.4    78    1.9   8.0   NNE   0.67  11.0    NE    2.7    5.3    2.5  1017.6  0.00   0.0   0.045   0.000   25.1    36    8.9   24.5   7.01 1.1761    117    1    100.0    5 
19/04/14   1:05    5.4    5.4    5.4    78    1.9   8.0   NNE   0.67  13.0    NE    2.6    5.2    2.4  1017.6  0.00   0.0   0.045   0.000   25.1    36    8.9   24.5   7.01 1.1761    117    1    100.0    5 
19/04/14   1:10    5.4    5.4    5.3    78    1.9   7.0   NNE   0.58  10.0   NNE    2.8    5.2    2.7  1017.7  0.00   0.0   0.045   0.000   25.0    36    8.9   24.4   7.01 1.1764    116    1    100.0    5 
19/04/14   1:15    5.4    5.4    5.3    78    1.9   7.0   NNE   0.58  11.0   NNE    2.8    5.2    2.7  1017.7  0.00   0.0   0.045   0.000   25.0    36    8.9   24.4   7.01 1.1764    116    1    100.0    5 
19/04/14   1:20    5.3    5.4    5.3    78    1.8   7.0   NNE   0.58  11.0   NNE    2.8    5.2    2.6  1017.7  0.00   0.0   0.045   0.000   24.9    36    8.8   24.4   7.01 1.1767    116    1    100.0    5 
19/04/14   1:25    5.3    5.3    5.3    78    1.8   7.0   NNE   0.58  11.0    NE    2.7    5.1    2.6  1017.6  0.00   0.0   0.045   0.000   24.9    35    8.4   24.3   6.91 1.1773    117    1    100.0    5 
19/04/14   1:30    5.2    5.3    5.2    78    1.7   7.0   NNE   0.58  11.0   NNE    2.7    5.1    2.5  1017.6  0.00   0.0   0.046   0.000   24.9    35    8.4   24.3   6.91 1.1773    115    1    100.0    5 
19/04/14   1:35    5.2    5.2    5.2    78    1.6   7.0   NNE   0.58  12.0   NNE    2.6    5.0    2.4  1017.6  0.00   0.0   0.046   0.000   24.8    35    8.3   24.2   6.92 1.1774    114    1    100.0    5 
19/04/14   1:40    5.2    5.2    5.1    78    1.6   7.0   NNE   0.58  12.0     N    2.6    5.0    2.4  1017.5  0.00   0.0   0.046   0.000   24.8    35    8.3   24.2   6.92 1.1774    117    1    100.0    5 
19/04/14   1:45    5.1    5.1    5.1    78    1.6   8.0   NNE   0.67  16.0   NNE    2.2    4.9    2.1  1017.5  0.00   0.0   0.046   0.000   24.8    35    8.3   24.2   6.92 1.1776    115    1    100.0    5 
19/04/14   1:50    5.1    5.1    5.1    79    1.7   8.0   NNE   0.67  16.0     N    2.2    4.9    2.0  1017.5  0.00   0.0   0.046   0.000   24.8    35    8.3   24.2   6.92 1.1776    117    1    100.0    5 
19/04/14   1:55    5.1    5.1    5.1    79    1.7   9.0   NNE   0.75  15.0   NNE    1.9    4.9    1.7  1017.4  0.00   0.0   0.046   0.000   24.7    35    8.2   24.1   6.92 1.1778    117    1    100.0    5 
19/04/14   2:00    5.0    5.1    5.0    78    1.5   8.0   NNE   0.67  13.0   NNE    2.1    4.8    1.9  1017.4  0.00   0.0   0.046   0.000   24.7    35    8.2   24.1   6.92 1.1780    117    1    100.0    5 
19/04/14   2:05    4.9    5.0    4.9    79    1.6   9.0   NNE   0.75  13.0   NNE    1.8    4.8    1.6  1017.3  0.00   0.0   0.046   0.000   24.7    35    8.2   24.1   6.92 1.1779    117    1    100.0    5 
19/04/14   2:10    4.9    4.9    4.9    79    1.6   7.0   NNE   0.58  12.0   NNE    2.3    4.7    2.1  1017.3  0.00   0.0   0.047   0.000   24.6    35    8.1   24.0   6.92 1.1782    113    1     99.1    5 
19/04/14   2:15    4.8    4.9    4.8    79    1.5   7.0   NNE   0.58  10.0   NNE    2.2    4.7    2.0  1017.3  0.00   0.0   0.047   0.000   24.6    35    8.1   23.9   6.93 1.1785    115    1    100.0    5 
19/04/14   2:20    4.8    4.8    4.8    79    1.4   7.0   NNE   0.58  12.0   NNE    2.1    4.6    1.9  1017.4  0.00   0.0   0.047   0.000   24.6    35    8.1   23.9   6.93 1.1785    117    1    100.0    5 
19/04/14   2:25    4.7    4.8    4.7    79    1.4   7.0   NNE   0.58  12.0    NE    2.1    4.6    1.9  1017.4  0.00   0.0   0.047   0.000   24.6    35    8.1   23.9   6.93 1.1785    117    1    100.0    5 
19/04/14   2:30    4.7    4.7    4.7    79    1.3   6.0   NNE   0.50  11.0    NE    2.3    4.5    2.2  1017.4  0.00   0.0   0.047   0.000   24.5    35    8.0   23.8   6.93 1.1788    116    1    100.0    5 
19/04/14   2:35    4.6    4.7    4.6    79    1.3   6.0   NNE   0.50   9.0   NNE    2.3    4.4    2.1  1017.4  0.00   0.0   0.048   0.000   24.5    35    8.0   23.8   6.93 1.1788    117    1    100.0    5 
19/04/14   2:40    4.6    4.6    4.6    79    1.2   7.0   NNE   0.58  12.0   NNE    1.8    4.4    1.7  1017.4  0.00   0.0   0.048   0.000   24.4    35    8.0   23.8   6.93 1.1791    117    1    100.0    5 
19/04/14   2:45    4.6    4.6    4.6    79    1.2   7.0   NNE   0.58  11.0   NNE    1.8    4.4    1.7  1017.4  0.00   0.0   0.048   0.000   24.4    35    8.0   23.8   6.93 1.1791    117    1    100.0    5 
19/04/14   2:50    4.6    4.6    4.6    79    1.3   7.0   NNE   0.58  11.0     N    1.9    4.4    1.8  1017.5  0.00   0.0   0.048   0.000   24.4    35    7.9   23.7   6.93 1.1794    117    1    100.0    5 
19/04/14   2:55    4.6    4.6    4.6    79    1.3   6.0   NNE   0.50  11.0   NNE    2.3    4.4    2.1  1017.4  0.00   0.0   0.048   0.000   24.4    35    7.9   23.7   6.93 1.1793    115    1    100.0    5 
19/04/14   3:00    4.6    4.6    4.6    79    1.3   7.0   NNE   0.58  11.0   NNE    1.9    4.4    1.8  1017.3  0.00   0.0   0.048   0.000   24.3    35    7.9   23.7   6.93 1.1795    115    1    100.0    5 
19/04/14   3:05    4.6    4.7    4.6    79    1.3   7.0   NNE   0.58  11.0    NE    1.9    4.4    1.8  1017.4  0.00   0.0   0.048   0.000   24.3    35    7.8   23.6   6.94 1.1799    117    1    100.0    5 
19/04/14   3:10    4.6    4.6    4.6    79    1.3   8.0   NNE   0.67  14.0     N    1.7    4.4    1.5  1017.3  0.00   0.0   0.048   0.000   24.2    35    7.8   23.6   6.94 1.1800    116    1    100.0    5 
19/04/14   3:15    4.6    4.6    4.6    79    1.3   8.0   NNE   0.67  13.0   NNE    1.7    4.4    1.5  1017.3  0.00   0.0   0.048   0.000   24.2    35    7.8   23.6   6.94 1.1800    116    1    100.0    5 
19/04/14   3:20    4.6    4.6    4.6    79    1.3   9.0   NNE   0.75  15.0   NNE    1.4    4.4    1.2  1017.4  0.00   0.0   0.048   0.000   24.2    35    7.7   23.5   6.94 1.1803    117    1    100.0    5 
19/04/14   3:25    4.6    4.6    4.6    79    1.2   7.0   NNE   0.58  10.0   NNW    1.8    4.4    1.7  1017.3  0.00   0.0   0.048   0.000   24.1    35    7.7   23.4   6.94 1.1806    117    1    100.0    5 
19/04/14   3:30    4.6    4.6    4.6    78    1.1   7.0   NNE   0.58  12.0   NNE    1.9    4.4    1.7  1017.3  0.00   0.0   0.048   0.000   24.1    35    7.7   23.4   6.94 1.1806    116    1    100.0    5 
19/04/14   3:35    4.6    4.6    4.6    78    1.1   6.0   NNE   0.50  11.0   NNE    2.3    4.4    2.1  1017.4  0.00   0.0   0.048   0.000   24.1    35    7.6   23.4   6.94 1.1809    117    1    100.0    5 
19/04/14   3:40    4.7    4.7    4.6    78    1.2   6.0   NNE   0.50  10.0     N    2.3    4.4    2.1  1017.3  0.00   0.0   0.047   0.000   24.1    35    7.6   23.4   6.94 1.1807    115    1    100.0    5 
19/04/14   3:45    4.7    4.7    4.7    78    1.2   6.0   NNE   0.50   9.0     N    2.3    4.4    2.1  1017.3  0.00   0.0   0.047   0.000   24.0    35    7.6   23.3   6.95 1.1810    116    1    100.0    5 
19/04/14   3:50    4.8    4.8    4.7    78    1.3   9.0   NNE   0.75  14.0   NNE    1.6    4.6    1.3  1017.3  0.00   0.0   0.047   0.000   23.9    35    7.5   23.3   6.95 1.1813    117    1    100.0    5 
19/04/14   3:55    4.8    4.8    4.7    78    1.3   9.0   NNE   0.75  15.0   NNE    1.6    4.6    1.4  1017.3  0.00   0.0   0.047   0.000   23.9    35    7.5   23.3   6.95 1.1813    116    1    100.0    5 
19/04/14   4:00    4.9    4.9    4.9    77    1.2  10.0   NNE   0.83  16.0     N    1.5    4.7    1.3  1017.3  0.00   0.0   0.046   0.000   23.9    35    7.5   23.2   6.95 1.1816    116    1    100.0    5 
19/04/14   4:05    5.1    5.1    5.0    77    1.4   9.0   NNE   0.75  15.0    NE    1.9    4.9    1.7  1017.3  0.00   0.0   0.046   0.000   23.9    35    7.5   23.2   6.95 1.1816    117    1    100.0    5 
19/04/14   4:10    5.2    5.2    5.1    77    1.5   8.0     N   0.67  12.0     N    2.3    4.9    2.1  1017.3  0.00   0.0   0.046   0.000   23.8    35    7.4   23.2   6.95 1.1818    115    1    100.0    5 
19/04/14   4:15    5.2    5.2    5.2    76    1.3   8.0   NNE   0.67  12.0   NNE    2.4    5.0    2.2  1017.3  0.00   0.0   0.046   0.000   23.8    35    7.4   23.1   6.95 1.1821    116    1    100.0    5 
19/04/14   4:20    5.2    5.2    5.2    76    1.3   8.0   NNE   0.67  11.0     N    2.4    5.0    2.2  1017.3  0.00   0.0   0.046   0.000   23.7    35    7.3   23.1   6.96 1.1824    117    1    100.0    5 
19/04/14   4:25    5.3    5.3    5.2    77    1.6   8.0   NNE   0.67  12.0   NNE    2.4    5.1    2.2  1017.4  0.00   0.0   0.045   0.000   23.7    35    7.3   23.1   6.96 1.1825    116    1    100.0    5 
19/04/14   4:30    5.3    5.3    5.3    76    1.4   8.0   NNE   0.67  13.0     N    2.5    5.1    2.3  1017.4  0.00   0.0   0.045   0.000   23.7    35    7.3   23.1   6.96 1.1825    117    1    100.0    5 
19/04/14   4:35    5.4    5.4    5.3    76    1.5   8.0   NNE   0.67  12.0     N    2.7    5.2    2.4  1017.3  0.00   0.0   0.045   0.000   23.7    35    7.3   23.0   6.96 1.1827    116    1    100.0    5 
19/04/14   4:40    5.5    5.5    5.4    76    1.6   7.0   NNE   0.58  12.0   NNE    3.0    5.3    2.8  1017.4  0.00   0.0   0.045   0.000   23.7    35    7.3   23.0   6.96 1.1827    115    1    100.0    5 
19/04/14   4:45    5.6    5.6    5.5    76    1.7   7.0   NNE   0.58  12.0   NNE    3.1    5.4    2.9  1017.4  0.00   0.0   0.044   0.000   23.6    35    7.2   22.9   6.96 1.1830    116    1    100.0    5 
19/04/14   4:50    5.8    5.8    5.7    76    1.9   7.0   NNE   0.58  13.0   NNE    3.4    5.6    3.2  1017.5  0.00   0.0   0.043   0.000   23.6    35    7.2   22.9   6.96 1.1831    113    1     99.1    5 
19/04/14   4:55    5.9    5.9    5.8    76    2.0   5.0   NNE   0.42  10.0     N    4.2    5.7    4.0  1017.4  0.00   0.0   0.043   0.000   23.6    35    7.2   22.9   6.96 1.1830    117    1    100.0    5 
19/04/14   5:00    6.1    6.1    5.9    76    2.1   7.0   NNE   0.58  12.0   NNE    3.7    5.8    3.5  1017.4  0.00   0.0   0.043   0.000   23.6    35    7.2   22.9   6.96 1.1830    117    1    100.0    5 
19/04/14   5:05    6.2    6.2    6.1    75    2.1   7.0   NNE   0.58  13.0     N    3.8    5.9    3.6  1017.4  0.00   0.0   0.042   0.000   23.6    35    7.2   22.8   6.96 1.1833    117    1    100.0    5 
19/04/14   5:10    6.2    6.2    6.2    75    2.1   7.0   NNE   0.58  13.0   NNE    3.9    6.0    3.7  1017.4  0.00   0.0   0.042   0.000   23.6    35    7.2   22.8   6.96 1.1833    115    1    100.0    5 
19/04/14   5:15    6.3    6.3    6.2    75    2.2   8.0   NNE   0.67  13.0    NE    3.7    6.1    3.5  1017.3  0.00   0.0   0.042   0.000   23.6    35    7.2   22.8   6.96 1.1832    115    1    100.0    5 
19/04/14   5:20    6.5    6.5    6.3    75    2.4   8.0   NNE   0.67  14.0   NNE    3.9    6.3    3.7  1017.3  0.00   0.0   0.041   0.000   23.6    35    7.2   22.8   6.96 1.1831    116    1    100.0    5 
19/04/14   5:25    6.6    6.6    6.5    74    2.3   7.0   NNE   0.58  14.0     E    4.4    6.4    4.2  1017.2  0.00   0.0   0.041   0.000   23.5    35    7.1   22.8   6.96 1.1833    116    1    100.0    5 
19/04/14   5:30    6.8    6.8    6.6    74    2.5   7.0   NNE   0.58  16.0    NE    4.6    6.6    4.3  1017.2  0.00   0.0   0.040   0.000   23.5    35    7.1   22.8   6.96 1.1833    117    1    100.0    5 
19/04/14   5:35    6.9    6.9    6.8    74    2.6   9.0   NNE   0.75  16.0    NE    4.1    6.7    3.8  1017.3  0.00   0.0   0.040   0.000   23.5    35    7.1   22.8   6.96 1.1834    116    1    100.0    5 
19/04/14   5:40    7.1    7.1    6.9    73    2.5   8.0   NNE   0.67  13.0   NNW    4.6    6.8    4.3  1017.2  0.00   0.0   0.039   0.000   23.5    35    7.1   22.8   6.96 1.1832    117    1    100.0    5 
19/04/14   5:45    7.2    7.2    7.1    73    2.7  11.0   NNE   0.92  18.0   NNE    3.9    7.0    3.7  1017.2  0.00   0.0   0.039   0.000   23.4    35    7.1   22.7   6.97 1.1835    117    1    100.0    5 
19/04/14   5:50    7.3    7.3    7.2    73    2.8   9.0   NNE   0.75  16.0   NNE    4.6    7.1    4.3  1017.1  0.00   0.0   0.038   0.000   23.4    35    7.1   22.7   6.97 1.1835    117    1    100.0    5 
19/04/14   5:55    7.5    7.5    7.3    72    2.8  10.0   NNE   0.83  17.0   NNE    4.5    7.2    4.2  1017.1  0.00   0.0   0.038   0.000   23.4    35    7.1   22.7   6.97 1.1834    116    1    100.0    5 
19/04/14   6:00    7.7    7.7    7.5    72    3.0   8.0   NNE   0.67  14.0   NNE    5.4    7.4    5.1  1017.1  0.00   0.0   0.037   0.000   23.4    35    7.1   22.7   6.97 1.1834    118    1    100.0    5 
19/04/14   6:05    7.8    7.8    7.7    71    2.9  10.0   NNE   0.83  18.0   ENE    4.8    7.6    4.6  1017.1  0.00   0.0   0.036   0.000   23.4    35    7.1   22.7   6.97 1.1834    117    1    100.0    5 
19/04/14   6:10    8.1    8.1    7.9    71    3.1  10.0   NNE   0.83  17.0    NE    5.1    7.8    4.8  1017.1  0.00   0.0   0.036   0.000   23.4    35    7.1   22.7   6.97 1.1834    116    1    100.0    5 
19/04/14   6:15    8.2    8.2    8.1    70    3.1   8.0   NNE   0.67  22.0   NNE    5.9    7.9    5.7  1017.1  0.00   0.0   0.035   0.000   23.4    36    7.5   22.8   7.08 1.1830    117    1    100.0    5 
19/04/14   6:20    8.3    8.3    8.2    70    3.2   9.0    NE   0.75  22.0     N    5.7    8.1    5.4  1017.0  0.00   0.0   0.035   0.000   23.4    36    7.5   22.8   7.08 1.1829    116    1    100.0    5 
19/04/14   6:25    8.4    8.4    8.4    69    3.1  11.0   NNE   0.92  19.0    NE    5.3    8.2    5.0  1016.9  0.00   0.0   0.034   0.000   23.4    36    7.5   22.8   7.08 1.1829    117    1    100.0    5 
19/04/14   6:30    8.6    8.6    8.4    69    3.2  10.0    NE   0.83  19.0   NNE    5.8    8.3    5.5  1017.0  0.00   0.0   0.034   0.000   23.4    36    7.5   22.8   7.08 1.1830    115    1    100.0    5 
19/04/14   6:35    8.8    8.8    8.6    68    3.2  11.0   NNE   0.92  18.0    NE    5.7    8.4    5.4  1017.1  0.00   0.0   0.033   0.000   23.4    36    7.5   22.8   7.08 1.1830    116    1    100.0    5 
19/04/14   6:40    9.0    9.0    8.8    68    3.4  10.0   NNE   0.83  17.0   NNE    6.2    8.7    5.9  1017.1  0.00   0.0   0.032   0.000   23.4    36    7.5   22.8   7.08 1.1830    115    1    100.0    5 
19/04/14   6:45    9.3    9.3    9.0    68    3.7   9.0   NNE   0.75  18.0   NNE    6.9    9.1    6.7  1017.0  0.00   0.0   0.031   0.000   23.4    36    7.5   22.8   7.08 1.1830    117    1    100.0    5 
19/04/14   6:50    9.4    9.4    9.3    67    3.6  13.0   NNE   1.08  22.0   NNE    5.9    9.1    5.6  1017.1  0.00   0.0   0.031   0.000   23.4    36    7.5   22.8   7.08 1.1831    117    1    100.0    5 
19/04/14   6:55    9.6    9.6    9.4    67    3.7   9.0    NE   0.75  17.0     E    7.2    9.3    6.9  1017.1  0.00   0.0   0.030   0.000   23.5    36    7.6   22.8   7.08 1.1828    114    1    100.0    5 
19/04/14   7:00    9.8    9.8    9.6    66    3.8   7.0   NNE   0.58  14.0   NNE    8.2    9.5    7.9  1017.1  0.00   0.0   0.030   0.000   23.5    36    7.6   22.8   7.08 1.1828    116    1    100.0    5 
19/04/14   7:05   10.0   10.0    9.8    65    3.7   8.0    NE   0.67  14.0   ENE    8.1    9.7    7.7  1017.2  0.00   0.0   0.029   0.000   23.5    36    7.6   22.8   7.08 1.1829    118    1    100.0    5 
19/04/14   7:10   10.0   10.0   10.0    66    3.9   8.0   NNE   0.67  16.0   ENE    8.1    9.7    7.7  1017.1  0.00   0.0   0.029   0.000   23.6    36    7.6   22.9   7.07 1.1826    117    1    100.0    5 
19/04/14   7:15   10.1   10.1   10.0    65    3.8   8.0    NE   0.67  19.0   NNE    8.1    9.7    7.8  1017.1  0.00   0.0   0.029   0.000   23.6    36    7.6   22.9   7.07 1.1825    115    1    100.0    5 
19/04/14   7:20   10.2   10.2   10.1    65    3.9   9.0    NE   0.75  16.0    NE    8.0    9.9    7.7  1017.1  0.00   0.0   0.028   0.000   23.6    36    7.7   22.9   7.07 1.1823    116    1    100.0    5 
19/04/14   7:25   10.6   10.6   10.2    65    4.2   8.0    NE   0.67  16.0   ENE    8.7   10.2    8.3  1017.1  0.00   0.0   0.027   0.000   23.6    37    8.1   23.0   7.26 1.1819    117    1    100.0    5 
19/04/14   7:30   10.7   10.7   10.6    63    3.9   7.0    NE   0.58  13.0    NE    9.2   10.2    8.8  1017.1  0.00   0.0   0.027   0.000   23.7    37    8.1   23.1   7.26 1.1817    116    1    100.0    5 
19/04/14   7:35   10.7   10.7   10.6    64    4.1   9.0    NE   0.75  16.0   NNE    8.5   10.2    8.1  1017.1  0.00   0.0   0.027   0.000   23.7    37    8.2   23.1   7.26 1.1814    116    1    100.0    5 
19/04/14   7:40   10.9   10.9   10.7    63    4.1   9.0    NE   0.75  17.0     E    8.8   10.4    8.3  1017.1  0.00   0.0   0.026   0.000   23.7    37    8.2   23.1   7.26 1.1814    115    1    100.0    5 
19/04/14   7:45   10.8   10.9   10.8    62    3.8   8.0    NE   0.67  17.0   NNE    9.1   10.3    8.6  1017.1  0.00   0.0   0.026   0.000   23.8    37    8.2   23.2   7.25 1.1812    116    1    100.0    5 
19/04/14   7:50   10.5   10.8   10.5    62    3.5  10.0    NE   0.83  18.0   ENE    8.0   10.1    7.6  1017.2  0.00   0.0   0.027   0.000   23.8    37    8.2   23.2   7.25 1.1812    117    1    100.0    5 
19/04/14   7:55   10.3   10.5   10.3    65    4.0   8.0    NE   0.67  17.0   NNE    8.4    9.9    8.0  1017.2  0.00   0.0   0.028   0.000   23.8    37    8.3   23.2   7.25 1.1810    116    1    100.0    5 
19/04/14   8:00   10.4   10.4   10.3    66    4.4   7.0   ENE   0.58  12.0    NE    9.0   10.1    8.7  1017.2  0.00   0.0   0.027   0.000   23.8    37    8.3   23.2   7.25 1.1810    117    1    100.0    5 
19/04/14   8:05   10.8   10.8   10.5    65    4.5  10.0   ENE   0.83  19.0   ENE    8.4   10.4    8.0  1017.2  0.00   0.0   0.026   0.000   23.9    37    8.3   23.3   7.25 1.1807    116    1    100.0    5 
19/04/14   8:10   11.4   11.4   10.8    64    4.9   8.0    NE   0.67  15.0   ENE    9.8   10.9    9.3  1017.0  0.00   0.0   0.024   0.000   23.9    37    8.4   23.4   7.25 1.1803    118    1    100.0    5 
19/04/14   8:15   11.8   11.8   11.4    62    4.7   8.0    NE   0.67  16.0   NNE   10.2   11.2    9.6  1017.0  0.00   0.0   0.023   0.000   23.9    37    8.4   23.4   7.25 1.1803    117    1    100.0    5 
19/04/14   8:20   12.4   12.4   11.8    62    5.4   9.0   ENE   0.75  23.0   ENE   10.6   11.8   10.0  1017.0  0.00   0.0   0.020   0.000   23.9    37    8.4   23.4   7.25 1.1802    117    1    100.0    5 
19/04/14   8:25   13.0   13.0   12.4    58    4.9  11.0     E   0.92  23.0   ENE   10.6   12.2    9.8  1017.0  0.00   0.0   0.019   0.000   24.0    37    8.4   23.4   7.25 1.1800    117    1    100.0    5 
19/04/14   8:30   13.1   13.1   13.0    56    4.5   8.0   ENE   0.67  16.0     N   11.7   12.2   10.9  1017.0  0.00   0.0   0.018   0.000   24.1    37    8.5   23.4   7.24 1.1797    117    1    100.0    5 
19/04/14   8:35   13.2   13.2   13.1    57    4.8   9.0     E   0.75  15.0     E   11.4   12.3   10.6  1016.9  0.00   0.0   0.018   0.000   24.1    37    8.5   23.4   7.24 1.1796    117    1    100.0    5 
19/04/14   8:40   13.5   13.5   13.2    57    5.1   8.0   ENE   0.67  15.0     E   12.3   12.7   11.4  1016.9  0.00   0.0   0.017   0.000   24.1    37    8.5   23.5   7.24 1.1793    117    1    100.0    5 
19/04/14   8:45   13.8   13.8   13.5    54    4.6   8.0   ENE   0.67  14.0   ENE   12.6   12.8   11.7  1016.9  0.00   0.0   0.016   0.000   24.2    37    8.6   23.6   7.24 1.1790    117    1    100.0    5 
19/04/14   8:50   13.4   13.8   13.4    53    4.0   8.0   ENE   0.67  16.0    NE   12.1   12.4   11.2  1016.8  0.00   0.0   0.017   0.000   24.2    37    8.6   23.6   7.24 1.1787    116    1    100.0    5 
19/04/14   8:55   13.3   13.4   13.3    54    4.2   9.0    NE   0.75  15.0   ENE   11.6   12.4   10.7  1016.7  0.00   0.0   0.018   0.000   24.2    37    8.6   23.6   7.24 1.1786    117    1    100.0    5 
19/04/14   9:00   13.4   13.4   13.2    55    4.5   7.0   ENE   0.58  15.0   ENE   12.5   12.5   11.6  1016.6  0.00   0.0   0.017   0.000   24.3    37    8.7   23.7   7.24 1.1782    117    1    100.0    5 
19/04/14   9:05   13.8   13.8   13.4    54    4.7   8.0   ENE   0.67  13.0     E   12.7   12.9   11.7  1016.6  0.00   0.0   0.016   0.000   24.3    37    8.7   23.7   7.23 1.1780    116    1    100.0    5 
19/04/14   9:10   14.6   14.6   13.9    54    5.4   9.0     E   0.75  16.0     E   13.2   13.7   12.2  1016.6  0.00   0.0   0.013   0.000   24.4    37    8.8   23.8   7.23 1.1776    118    1    100.0    5 
19/04/14   9:15   15.2   15.2   14.7    51    5.1   9.0   ENE   0.75  15.0     E   13.8   14.1   12.8  1016.5  0.00   0.0   0.011   0.000   24.4    37    8.8   23.8   7.23 1.1776    116    1    100.0    5 
19/04/14   9:20   14.8   15.2   14.8    50    4.5   6.0   ENE   0.50  13.0   ENE   14.4   13.7   13.3  1016.5  0.00   0.0   0.012   0.000   24.4    37    8.8   23.8   7.23 1.1773    116    1    100.0    5 
19/04/14   9:25   14.2   14.8   14.2    51    4.2   7.0   ENE   0.58  13.0    NE   13.4   13.1   12.4  1016.5  0.00   0.0   0.014   0.000   24.5    37    8.8   23.9   7.23 1.1771    117    1    100.0    5 
19/04/14   9:30   13.7   14.2   13.7    54    4.5   9.0    NE   0.75  17.0     E   12.1   12.7   11.1  1016.5  0.00   0.0   0.016   0.000   24.5    37    8.8   23.9   7.23 1.1771    116    1    100.0    5 
19/04/14   9:35   13.1   13.6   13.1    54    4.0   7.0    NE   0.58  14.0   NNE   12.2   12.2   11.3  1016.4  0.00   0.0   0.018   0.000   24.6    37    8.9   24.0   7.23 1.1767    117    1    100.0    5 
19/04/14   9:40   12.8   13.1   12.8    55    4.0   8.0    NE   0.67  15.0   ENE   11.4   12.0   10.6  1016.5  0.00   0.0   0.019   0.000   24.6    37    8.9   24.1   7.22 1.1765    115    1    100.0    5 
19/04/14   9:45   12.7   12.8   12.7    55    3.9   8.0    NE   0.67  15.0   ENE   11.3   11.9   10.5  1016.5  0.00   0.0   0.019   0.000   24.6    37    8.9   24.1   7.22 1.1765    116    1    100.0    5 
19/04/14   9:50   12.7   12.7   12.7    55    3.9   9.0   ENE   0.75  15.0   ENE   10.9   11.9   10.1  1016.4  0.00   0.0   0.019   0.000   24.7    37    9.0   24.1   7.22 1.1761    116    1    100.0    5 
19/04/14   9:55   12.7   12.7   12.7    55    3.9   7.0    NE   0.58  14.0   ENE   11.7   11.9   10.9  1016.3  0.00   0.0   0.019   0.000   24.7    37    9.0   24.1   7.22 1.1760    116    1    100.0    5 
19/04/14  10:00   12.9   12.9   12.7    55    4.1   7.0    NE   0.58  13.0     E   11.9   12.1   11.1  1016.3  0.00   0.0   0.019   0.000   24.7    37    9.0   24.2   7.22 1.1757    117    1    100.0    5 
19/04/14  10:05   12.8   12.9   12.8    55    4.0   7.0    NE   0.58  14.0    NE   11.8   12.0   11.0  1016.3  0.00   0.0   0.019   0.000   24.7    37    9.0   24.2   7.22 1.1757    115    1    100.0    5 
19/04/14  10:10   12.7   12.8   12.7    54    3.6   7.0    NE   0.58  13.0    NE   11.7   11.8   10.8  1016.1  0.00   0.0   0.020   0.000   24.8    37    9.1   24.2   7.22 1.1752    117    1    100.0    5 
19/04/14  10:15   12.6   12.6   12.6    55    3.8   6.0    NE   0.50  12.0   ENE   11.8   11.8   10.9  1016.0  0.00   0.0   0.020   0.000   24.8    37    9.1   24.2   7.22 1.1751    118    1    100.0    5 
19/04/14  10:20   12.7   12.7   12.6    55    3.9   7.0    NE   0.58  14.0   ENE   11.7   11.8   10.8  1015.9  0.00   0.0   0.020   0.000   24.8    37    9.1   24.3   7.22 1.1748    116    1    100.0    5 
19/04/14  10:25   13.3   13.3   12.7    55    4.4   6.0     E   0.50  10.0   ENE   12.6   12.4   11.7  1015.9  0.00   0.0   0.018   0.000   24.8    37    9.1   24.3   7.22 1.1747    116    1    100.0    5 
19/04/14  10:30   13.7   13.7   13.3    52    4.0   8.0   ENE   0.67  15.0     E   12.4   12.7   11.4  1016.0  0.00   0.0   0.016   0.000   24.9    37    9.2   24.3   7.21 1.1746    117    1    100.0    5 
19/04/14  10:35   13.9   13.9   13.7    53    4.5   8.0   ENE   0.67  17.0   ENE   12.8   13.0   11.8  1016.0  0.00   0.0   0.015   0.000   24.9    37    9.2   24.4   7.21 1.1743    116    1    100.0    5 
19/04/14  10:40   14.3   14.3   14.0    52    4.5   8.0   ENE   0.67  14.0   ENE   13.2   13.3   12.2  1016.0  0.00   0.0   0.014   0.000   24.9    37    9.2   24.4   7.21 1.1743    117    1    100.0    5 
19/04/14  10:45   14.9   14.9   14.3    51    4.8   6.0     E   0.50  13.0     E   14.6   13.8   13.5  1015.8  0.00   0.0   0.012   0.000   25.0    37    9.3   24.5   7.21 1.1738    117    1    100.0    5 
19/04/14  10:50   15.6   15.6   14.9    50    5.2   7.0   ENE   0.58  12.0   ENE   15.1   14.4   14.0  1015.8  0.00   0.0   0.010   0.000   25.0    37    9.3   24.5   7.21 1.1738    117    1    100.0    5 
19/04/14  10:55   15.6   15.6   15.6    48    4.6   8.0    NE   0.67  14.0   ENE   14.7   14.4   13.6  1015.7  0.00   0.0   0.010   0.000   25.1    37    9.3   24.6   7.21 1.1734    117    1    100.0    5 
19/04/14  11:00   15.8   15.8   15.6    48    4.8   6.0     E   0.50  15.0     E   15.6   14.6   14.4  1015.6  0.00   0.0   0.009   0.000   25.1    37    9.4   24.6   7.21 1.1731    117    1    100.0    5 
19/04/14  11:05   15.8   15.8   15.8    47    4.5   7.0    NE   0.58  13.0   ENE   15.4   14.6   14.2  1015.6  0.00   0.0   0.009   0.000   25.1    37    9.4   24.6   7.21 1.1731    117    1    100.0    5 
19/04/14  11:10   15.3   15.8   15.3    48    4.3   8.0   ENE   0.67  12.0   ENE   14.4   14.1   13.2  1015.8  0.00   0.0   0.011   0.000   25.2    37    9.4   24.6   7.20 1.1730    116    1    100.0    5 
19/04/14  11:15   14.9   15.3   14.9    48    4.0   7.0    NE   0.58  15.0    NE   14.3   13.7   13.2  1015.7  0.00   0.0   0.012   0.000   25.2    37    9.5   24.7   7.20 1.1726    117    1    100.0    5 
19/04/14  11:20   14.7   14.9   14.7    49    4.1   7.0     E   0.58  14.0   ENE   14.1   13.5   12.9  1015.7  0.00   0.0   0.013   0.000   25.2    37    9.5   24.7   7.20 1.1726    117    1    100.0    5 
19/04/14  11:25   14.9   14.9   14.7    49    4.3   6.0    NE   0.50  13.0    NE   14.6   13.7   13.4  1015.6  0.00   0.0   0.012   0.000   25.3    37    9.5   24.7   7.20 1.1723    116    1    100.0    5 
19/04/14  11:30   14.9   14.9   14.9    49    4.3   7.0   ENE   0.58  13.0   ENE   14.4   13.8   13.2  1015.7  0.00   0.0   0.012   0.000   25.3    37    9.5   24.7   7.20 1.1724    116    1    100.0    5 
19/04/14  11:35   15.2   15.2   15.0    48    4.2   5.0     E   0.42   9.0     E   15.1   14.0   13.9  1015.8  0.00   0.0   0.011   0.000   25.3    37    9.6   24.7   7.20 1.1722    117    1    100.0    5 
19/04/14  11:40   14.8   15.2   14.8    48    3.9   7.0   ENE   0.58  13.0   ENE   14.2   13.7   13.1  1015.7  0.00   0.0   0.012   0.000   25.4    37    9.6   24.8   7.20 1.1718    117    1    100.0    5 
19/04/14  11:45   14.5   14.8   14.5    48    3.6   7.0    NE   0.58  13.0   ENE   13.8   13.3   12.7  1015.8  0.00   0.0   0.013   0.000   25.4    37    9.6   24.8   7.20 1.1719    115    1    100.0    5 
19/04/14  11:50   14.1   14.5   14.1    49    3.5   6.0    NE   0.50  11.0    NE   13.6   12.9   12.4  1015.8  0.00   0.0   0.015   0.000   25.4    37    9.7   24.8   7.19 1.1717    117    1    100.0    5 
19/04/14  11:55   13.8   14.1   13.8    51    3.8   9.0    NE   0.75  18.0   NNE   12.2   12.8   11.2  1015.7  0.00   0.0   0.016   0.000   25.4    37    9.7   24.8   7.19 1.1716    116    1    100.0    5 
19/04/14  12:00   13.4   13.7   13.4    52    3.8   9.0    NE   0.75  16.0    NE   11.8   12.4   10.8  1015.7  0.00   0.0   0.017   0.000   25.5    37    9.7   24.9   7.19 1.1713    117    1    100.0    5 
19/04/14  12:05   13.1   13.4   13.1    52    3.5  11.0    NE   0.92  18.0   NNE   10.7   12.2    9.8  1015.7  0.00   0.0   0.018   0.000   25.5    37    9.7   24.9   7.19 1.1714    117    1    100.0    5 
19/04/14  12:10   12.9   13.1   12.9    54    3.8   8.0    NE   0.67  15.0    NE   11.6   12.1   10.7  1015.6  0.00   0.0   0.019   0.000   25.5    37    9.7   24.9   7.19 1.1712    116    1    100.0    5 
19/04/14  12:15   13.1   13.1   12.9    54    4.0   6.0    NE   0.50  13.0   ENE   12.3   12.2   11.4  1015.5  0.00   0.0   0.018   0.000   25.6    37    9.8   24.9   7.19 1.1709    115    1    100.0    5 
19/04/14  12:20   13.4   13.4   13.1    53    4.0   8.0    NE   0.67  13.0   ENE   12.1   12.4   11.2  1015.4  0.00   0.0   0.017   0.000   25.6    36    9.4   24.9   6.99 1.1709    117    1    100.0    5 
19/04/14  12:25   14.3   14.3   13.4    52    4.6   8.0    NE   0.67  17.0    NE   13.3   13.3   12.3  1015.3  0.00   0.0   0.014   0.000   25.6    36    9.4   24.9   6.99 1.1708    117    1    100.0    5 
19/04/14  12:30   14.9   14.9   14.3    50    4.6   7.0   ENE   0.58  16.0   NNE   14.4   13.8   13.3  1015.3  0.00   0.0   0.012   0.000   25.7    36    9.5   25.0   6.99 1.1705    117    1    100.0    5 
19/04/14  12:35   14.7   14.9   14.7    50    4.3   6.0   NNE   0.50  11.0   NNE   14.3   13.6   13.2  1015.3  0.00   0.0   0.013   0.000   25.7    36    9.5   25.0   6.99 1.1705    117    1    100.0    5 
19/04/14  12:40   14.3   14.7   14.3    51    4.3   8.0    NE   0.67  14.0    NE   13.2   13.2   12.1  1015.2  0.00   0.0   0.014   0.000   25.7    36    9.5   25.1   6.98 1.1701    117    1    100.0    5 
19/04/14  12:45   14.0   14.3   14.0    52    4.3   9.0    NE   0.75  16.0   NNE   12.4   13.0   11.4  1015.2  0.00   0.0   0.015   0.000   25.7    36    9.5   25.1   6.98 1.1701    116    1    100.0    5 
19/04/14  12:50   14.1   14.1   14.0    53    4.6   6.0   ENE   0.50  11.0   NNE   13.6   13.1   12.6  1015.2  0.00   0.0   0.015   0.000   25.8    36    9.6   25.1   6.98 1.1698    116    1    100.0    5 
19/04/14  12:55   14.1   14.1   14.1    53    4.6   5.0    NE   0.42  11.0   ENE   13.8   13.1   12.8  1015.1  0.00   0.0   0.015   0.000   25.8    36    9.6   25.1   6.98 1.1697    116    1    100.0    5 
19/04/14  13:00   14.4   14.4   14.1    61    7.0   8.0   ESE   0.67  13.0     E   13.3   13.7   12.7  1015.1  0.00   0.0   0.014   0.000   25.8    36    9.6   25.2   6.98 1.1694    115    1    100.0    5 
19/04/14  13:05   14.9   14.9   14.4    62    7.7  12.0   ESE   1.00  15.0     E   12.4   14.2   11.8  1014.9  0.00   0.0   0.012   0.000   25.8    36    9.6   25.2   6.98 1.1692    116    1    100.0    5 
19/04/14  13:10   14.7   14.9   14.7    62    7.5  12.0   ESE   1.00  17.0     E   12.2   14.0   11.5  1015.0  0.00   0.0   0.013   0.000   25.9    36    9.7   25.2   6.98 1.1690    117    1    100.0    5 
19/04/14  13:15   14.3   14.6   14.3    62    7.1  10.0   ESE   0.83  16.0     E   12.4   13.7   11.8  1014.9  0.00   0.0   0.014   0.000   25.9    36    9.7   25.2   6.98 1.1689    116    1    100.0    5 
19/04/14  13:20   14.7   14.7   14.3    63    7.7  11.0   ESE   0.92  16.0   ESE   12.5   14.1   11.9  1014.7  0.00   0.0   0.013   0.000   25.9    36    9.7   25.3   6.98 1.1684    114    1    100.0    5 
19/04/14  13:25   15.1   15.1   14.7    60    7.3  12.0   ESE   1.00  16.0   ESE   12.6   14.3   11.9  1014.7  0.00   0.0   0.011   0.000   25.9    36    9.7   25.3   6.98 1.1685    117    1    100.0    5 
19/04/14  13:30   14.7   15.1   14.7    59    6.7  10.0   ESE   0.83  14.0   ESE   12.8   13.9   12.1  1014.6  0.00   0.0   0.013   0.000   26.0    36    9.8   25.4   6.97 1.1681    117    1    100.0    5 
19/04/14  13:35   14.2   14.7   14.2    60    6.6  10.0   ESE   0.83  15.0     E   12.3   13.5   11.6  1014.7  0.00   0.0   0.014   0.000   26.0    36    9.8   25.4   6.97 1.1682    116    1    100.0    5 
19/04/14  13:40   14.3   14.3   14.2    63    7.3   8.0   ESE   0.67  13.0     E   13.2   13.7   12.6  1014.6  0.00   0.0   0.014   0.000   26.0    36    9.8   25.4   6.97 1.1681    117    1    100.0    5 
19/04/14  13:45   14.6   14.6   14.3    62    7.4   8.0   ESE   0.67  13.0   ESE   13.6   13.9   12.9  1014.6  0.00   0.0   0.013   0.000   26.1    36    9.8   25.4   6.97 1.1678    117    1    100.0    5 
19/04/14  13:50   14.6   14.7   14.6    60    6.9  10.0   ESE   0.83  15.0   ESE   12.8   13.9   12.1  1014.6  0.00   0.0   0.013   0.000   26.1    36    9.9   25.5   6.97 1.1675    117    1    100.0    5 
19/04/14  13:55   14.5   14.6   14.4    60    6.8   9.0   ESE   0.75  14.0     E   13.0   13.8   12.3  1014.5  0.00   0.0   0.013   0.000   26.1    36    9.9   25.5   6.97 1.1674    116    1    100.0    5 
19/04/14  14:00   14.9   14.9   14.5    59    7.0   9.0   ESE   0.75  14.0   ESE   13.6   14.2   12.8  1014.5  0.00   0.0   0.012   0.000   26.1    36    9.9   25.5   6.97 1.1674    116    1    100.0    5 
19/04/14  14:05   15.7   15.7   15.0    58    7.5   9.0   ESE   0.75  13.0   ESE   14.5   14.9   13.7  1014.4  0.00   0.0   0.009   0.000   26.1    36    9.9   25.5   6.97 1.1673    114    1    100.0    5 
19/04/14  14:10   16.3   16.3   15.8    57    7.8   8.0   ESE   0.67  13.0     E   15.7   15.6   14.9  1014.4  0.00   0.0   0.007   0.000   26.2    36    9.9   25.6   6.97 1.1671    116    1    100.0    5 
19/04/14  14:15   16.4   16.4   16.3    54    7.1   6.0   ESE   0.50  11.0     E   16.3   15.5   15.4  1014.4  0.00   0.0   0.007   0.000   26.2    36    9.9   25.6   6.97 1.1670    116    1    100.0    5 
19/04/14  14:20   16.3   16.4   16.2    56    7.5   6.0   ESE   0.50  11.0   ESE   16.2   15.4   15.4  1014.4  0.00   0.0   0.007   0.000   26.2    36   10.0   25.6   6.97 1.1668    115    1    100.0    5 
19/04/14  14:25   16.7   16.7   16.3    56    7.8   6.0   ESE   0.50  13.0   ESE   16.7   15.9   15.9  1014.4  0.00   0.0   0.006   0.000   26.2    36   10.0   25.6   6.97 1.1668    117    1    100.0    5 
19/04/14  14:30   16.9   16.9   16.7    55    7.8  12.0   ESE   1.00  14.0   ESE   14.8   16.1   13.9  1014.3  0.00   0.0   0.005   0.000   26.3    36   10.0   25.6   6.96 1.1664    117    1    100.0    5 
19/04/14  14:35   16.4   16.9   16.4    56    7.6  11.0    SE   0.92  16.0   ESE   14.6   15.6   13.7  1014.3  0.00   0.0   0.007   0.000   26.3    36   10.0   25.6   6.96 1.1664    117    1    100.0    5 
19/04/14  14:40   15.7   16.4   15.7    56    6.9  12.0   ESE   1.00  15.0   ESE   13.3   14.8   12.5  1014.2  0.00   0.0   0.009   0.000   26.3    36   10.0   25.6   6.96 1.1662    116    1    100.0    5 
19/04/14  14:45   14.6   15.6   14.6    58    6.4  13.0   ESE   1.08  15.0   ESE   11.8   13.8   11.1  1014.2  0.00   0.0   0.013   0.000   26.3    36   10.0   25.6   6.96 1.1662    117    1    100.0    5 
19/04/14  14:50   14.6   14.6   14.4    61    7.1  11.0   ESE   0.92  14.0   ESE   12.3   13.9   11.7  1014.1  0.00   0.0   0.013   0.000   26.3    36   10.1   25.7   6.96 1.1659    116    1    100.0    5 
19/04/14  14:55   15.1   15.1   14.6    60    7.3  10.0   ESE   0.83  13.0   ESE   13.3   14.3   12.6  1014.0  0.00   0.0   0.011   0.000   26.3    36   10.1   25.7   6.96 1.1657    117    1    100.0    5 
19/04/14  15:00   15.5   15.5   15.1    60    7.8  10.0   ESE   0.83  13.0   ESE   13.8   14.8   13.1  1013.9  0.00   0.0   0.010   0.000   26.4    36   10.1   25.7   6.96 1.1654    117    1    100.0    5 
19/04/14  15:05   15.7   15.7   15.6    58    7.4   9.0   ESE   0.75  13.0   ESE   14.4   14.9   13.6  1014.0  0.00   0.0   0.009   0.000   26.4    36   10.1   25.7   6.96 1.1655    115    1    100.0    5 
19/04/14  15:10   15.2   15.7   15.2    58    7.0  10.0   ESE   0.83  14.0     E   13.4   14.4   12.7  1014.0  0.00   0.0   0.011   0.000   26.4    36   10.1   25.7   6.96 1.1655    117    1    100.0    5 
19/04/14  15:15   14.4   15.2   14.4    60    6.8  10.0   ESE   0.83  13.0     E   12.6   13.7   11.8  1014.0  0.00   0.0   0.014   0.000   26.4    36   10.1   25.7   6.96 1.1655    115    1    100.0    5 
19/04/14  15:20   14.2   14.4   14.2    62    7.0   7.0   ESE   0.58  11.0   ESE   13.5   13.6   12.8  1013.9  0.00   0.0   0.014   0.000   26.4    36   10.1   25.7   6.96 1.1654    117    1    100.0    5 
19/04/14  15:25   14.5   14.5   14.2    64    7.8   6.0   ESE   0.50  10.0   ESE   14.1   13.9   13.4  1013.9  0.00   0.0   0.013   0.000   26.4    36   10.1   25.7   6.96 1.1654    115    1    100.0    5 
19/04/14  15:30   14.9   14.9   14.5    61    7.5   7.0   ESE   0.58  11.0   ESE   14.4   14.3   13.7  1013.8  0.00   0.0   0.012   0.000   26.4    36   10.1   25.7   6.96 1.1653    118    1    100.0    5 
19/04/14  15:35   15.2   15.2   14.9    60    7.5   7.0   ESE   0.58  11.0   ESE   14.7   14.5   14.0  1013.8  0.00   0.0   0.011   0.000   26.4    36   10.2   25.7   6.96 1.1650    115    1    100.0    5 
19/04/14  15:40   15.2   15.3   15.2    59    7.3   8.0   ESE   0.67  12.0   ESE   14.3   14.4   13.6  1013.8  0.00   0.0   0.011   0.000   26.4    36   10.1   25.7   6.96 1.1653    117    1    100.0    5 
19/04/14  15:45   14.9   15.2   14.9    61    7.4   8.0   ESE   0.67  13.0   ESE   13.9   14.2   13.3  1013.7  0.00   0.0   0.012   0.000   26.4    36   10.2   25.7   6.96 1.1649    117    1    100.0    5 
19/04/14  15:50   14.6   14.9   14.6    61    7.2   7.0     E   0.58  11.0     E   14.0   13.9   13.3  1013.8  0.00   0.0   0.013   0.000   26.4    36   10.2   25.7   6.96 1.1650    116    1    100.0    5 
19/04/14  15:55   14.3   14.6   14.3    62    7.1   5.0     E   0.42  10.0     E   14.0   13.6   13.3  1013.8  0.00   0.0   0.014   0.000   26.4    36   10.1   25.7   6.96 1.1652    116    1    100.0    5 
19/04/14  16:00   14.0   14.3   14.0    63    7.1   6.0     E   0.50  13.0     E   13.4   13.4   12.8  1013.8  0.00   0.0   0.015   0.000   26.4    36   10.2   25.7   6.96 1.1650    117    1    100.0    5 
19/04/14  16:05   13.7   14.0   13.7    64    7.0   6.0     E   0.50  10.0   ESE   13.1   13.1   12.5  1013.8  0.00   0.0   0.016   0.000   26.4    36   10.2   25.7   6.96 1.1650    116    1    100.0    5 
19/04/14  16:10   13.8   13.8   13.7    66    7.6   5.0   ESE   0.42   9.0   ESE   13.5   13.3   12.9  1013.8  0.00   0.0   0.016   0.000   26.4    35    9.7   25.7   6.86 1.1655    116    1    100.0    5 
19/04/14  16:15   14.2   14.2   13.8    66    8.0   6.0     E   0.50   8.0   ESE   13.7   13.7   13.2  1013.9  0.00   0.0   0.014   0.000   26.4    35    9.7   25.7   6.86 1.1655    116    1    100.0    5 
19/04/14  16:20   14.4   14.4   14.2    64    7.7   3.0     E   0.25   7.0   ENE   14.4   13.8   13.8  1013.8  0.00   0.0   0.014   0.000   26.4    35    9.7   25.7   6.86 1.1655    117    1    100.0    5 
19/04/14  16:25   14.7   14.7   14.4    63    7.7   4.0     E   0.33   8.0   ESE   14.7   14.1   14.1  1013.8  0.00   0.0   0.013   0.000   26.4    35    9.7   25.7   6.86 1.1654    117    1    100.0    5 
19/04/14  16:30   14.6   14.7   14.6    60    6.9   5.0   ENE   0.42  13.0    NE   14.3   13.8   13.6  1013.7  0.00   0.0   0.013   0.000   26.4    35    9.7   25.7   6.86 1.1653    113    1     99.1    5 
19/04/14  16:35   13.8   14.6   13.8    57    5.4   7.0    NE   0.58  16.0   ENE   13.0   12.9   12.2  1013.8  0.00   0.0   0.016   0.000   26.4    35    9.7   25.7   6.86 1.1654    115    1    100.0    5 
19/04/14  16:40   13.1   13.8   13.1    60    5.5   8.0    NE   0.67  16.0   NNE   11.7   12.3   11.0  1013.8  0.00   0.0   0.018   0.000   26.4    35    9.7   25.7   6.86 1.1655    117    1    100.0    5 
19/04/14  16:45   12.7   13.1   12.7    62    5.6   7.0    NE   0.58  14.0   ENE   11.7   12.0   11.0  1013.9  0.00   0.0   0.020   0.000   26.4    35    9.7   25.7   6.86 1.1658    117    1    100.0    5 
19/04/14  16:50   12.3   12.6   12.3    62    5.3   6.0    NE   0.50  11.0    NE   11.4   11.7   10.8  1013.9  0.00   0.0   0.021   0.000   26.4    35    9.7   25.7   6.86 1.1655    114    1    100.0    5 
19/04/14  16:55   12.1   12.3   12.1    63    5.3   7.0    NE   0.58  16.0   ENE   11.0   11.5   10.4  1014.0  0.00   0.0   0.022   0.000   26.4    35    9.7   25.7   6.86 1.1659    116    1    100.0    5 
19/04/14  17:00   11.9   12.1   11.9    64    5.3   8.0    NE   0.67  13.0     N   10.3   11.3    9.8  1014.0  0.00   0.0   0.022   0.000   26.4    35    9.7   25.7   6.86 1.1659    117    1    100.0    5 
19/04/14  17:05   11.7   11.9   11.7    65    5.4   8.0    NE   0.67  18.0   ENE   10.1   11.2    9.6  1014.0  0.00   0.0   0.023   0.000   26.4    35    9.7   25.7   6.86 1.1659    117    1    100.0    5 
19/04/14  17:10   11.6   11.7   11.6    66    5.5   9.0   NNE   0.75  19.0    NE    9.6   11.1    9.1  1014.0  0.00   0.0   0.023   0.000   26.4    35    9.7   25.7   6.86 1.1659    117    1    100.0    5 
19/04/14  17:15   11.4   11.6   11.4    66    5.3   9.0   NNE   0.75  16.0   ENE    9.4   11.0    8.9  1014.0  0.00   0.0   0.024   0.000   26.4    35    9.7   25.7   6.86 1.1660    115    1    100.0    5 
19/04/14  17:20   11.2   11.4   11.2    67    5.3   7.0    NE   0.58  15.0   NNE    9.9   10.8    9.5  1014.0  0.00   0.0   0.025   0.000   26.3    35    9.6   25.6   6.86 1.1662    115    1    100.0    5 
19/04/14  17:25   11.1   11.2   11.1    67    5.2   7.0    NE   0.58  15.0   NNE    9.7   10.7    9.3  1014.0  0.00   0.0   0.025   0.000   26.3    35    9.6   25.6   6.86 1.1662    116    1    100.0    5 
19/04/14  17:30   10.8   11.0   10.8    68    5.1   8.0   NNE   0.67  14.0   NNE    9.0   10.4    8.7  1014.1  0.00   0.0   0.026   0.000   26.3    35    9.6   25.6   6.86 1.1663    117    1    100.0    5 
19/04/14  17:35   10.7   10.8   10.7    69    5.2   7.0   NNE   0.58  12.0   ENE    9.2   10.3    8.9  1014.1  0.00   0.0   0.027   0.000   26.3    35    9.6   25.6   6.86 1.1663    116    1    100.0    5 
19/04/14  17:40   10.4   10.7   10.4    69    5.0   7.0   NNE   0.58  15.0    NE    9.0   10.2    8.7  1014.2  0.00   0.0   0.027   0.000   26.3    35    9.6   25.6   6.86 1.1664    117    1    100.0    5 
19/04/14  17:45   10.3   10.4   10.3    70    5.1   8.0    NE   0.67  18.0    NE    8.4   10.1    8.2  1014.2  0.00   0.0   0.028   0.000   26.3    35    9.6   25.6   6.86 1.1666    117    1    100.0    5 
19/04/14  17:50   10.2   10.3   10.2    70    4.9  10.0    NE   0.83  19.0    NE    7.6    9.9    7.4  1014.2  0.00   0.0   0.028   0.000   26.3    35    9.6   25.6   6.86 1.1667    117    1    100.0    5 
19/04/14  17:55   10.1   10.2   10.1    71    5.0   6.0   NNE   0.50  10.0    NE    8.8    9.8    8.6  1014.3  0.00   0.0   0.029   0.000   26.2    35    9.5   25.5   6.87 1.1671    115    1    100.0    5 
19/04/14  18:00   10.0   10.1   10.0    71    5.0   5.0   NNE   0.42  11.0   NNE    9.0    9.8    8.8  1014.3  0.00   0.0   0.029   0.000   26.2    35    9.5   25.5   6.87 1.1670    115    1    100.0    5 
19/04/14  18:05    9.9   10.0    9.9    72    5.1   7.0    NE   0.58  13.0   ENE    8.3    9.7    8.2  1014.3  0.00   0.0   0.029   0.000   26.2    35    9.5   25.5   6.87 1.1673    117    1    100.0    5 
19/04/14  18:10    9.8    9.9    9.8    72    5.0   7.0    NE   0.58  12.0    NE    8.2    9.7    8.1  1014.1  0.00   0.0   0.030   0.000   26.2    35    9.5   25.5   6.87 1.1671    117    1    100.0    5 
19/04/14  18:15    9.8    9.8    9.8    72    5.0   6.0   NNE   0.50  14.0   NNE    8.4    9.6    8.3  1014.1  0.00   0.0   0.030   0.000   26.2    35    9.5   25.5   6.87 1.1671    117    1    100.0    5 
19/04/14  18:20    9.7    9.8    9.7    73    5.1   7.0    NE   0.58  14.0   NNE    8.1    9.6    7.9  1014.1  0.00   0.0   0.030   0.000   26.1    35    9.4   25.4   6.87 1.1673    116    1    100.0    5 
19/04/14  18:25    9.6    9.7    9.6    73    5.0   7.0   NNE   0.58  13.0    NE    8.0    9.4    7.8  1014.1  0.00   0.0   0.030   0.000   26.1    35    9.4   25.4   6.87 1.1673    117    1    100.0    5 
19/04/14  18:30    9.5    9.6    9.5    73    4.9   7.0   NNE   0.58  11.0    NE    7.8    9.3    7.7  1014.0  0.00   0.0   0.031   0.000   26.1    35    9.4   25.4   6.87 1.1675    117    1    100.0    5 
19/04/14  18:35    9.4    9.5    9.4    73    4.8   7.0    NE   0.58  17.0   NNE    7.7    9.2    7.6  1014.1  0.00   0.0   0.031   0.000   26.1    35    9.4   25.4   6.87 1.1676    116    1    100.0    5 
19/04/14  18:40    9.3    9.4    9.3    74    4.9   7.0   NNE   0.58  13.0    NE    7.7    9.2    7.5  1014.1  0.00   0.0   0.031   0.000   26.1    35    9.4   25.4   6.87 1.1676    117    1    100.0    5 
19/04/14  18:45    9.2    9.3    9.2    74    4.8   9.0   NNE   0.75  17.0    NE    6.7    9.0    6.6  1014.1  0.00   0.0   0.032   0.000   26.0    35    9.3   25.3   6.87 1.1678    117    1    100.0    5 
19/04/14  18:50    9.1    9.2    9.1    74    4.7   8.0    NE   0.67  17.0    NE    6.9    8.9    6.8  1014.0  0.00   0.0   0.032   0.000   26.0    35    9.3   25.3   6.87 1.1677    116    1    100.0    5 
19/04/14  18:55    9.0    9.1    9.0    75    4.8   7.0    NE   0.58  12.0    NE    7.2    8.8    7.1  1013.9  0.00   0.0   0.032   0.000   26.0    35    9.3   25.3   6.87 1.1676    116    1    100.0    5 
19/04/14  19:00    8.9    9.0    8.9    75    4.7   7.0    NE   0.58  14.0   NNE    7.2    8.8    7.0  1013.9  0.00   0.0   0.033   0.000   25.9    35    9.3   25.3   6.88 1.1678    116    1    100.0    5 
19/04/14  19:05    8.8    8.9    8.8    75    4.6   8.0   NNE   0.67  15.0   NNE    6.7    8.7    6.5  1013.8  0.00   0.0   0.033   0.000   25.9    35    9.3   25.2   6.88 1.1680    117    1    100.0    5 
19/04/14  19:10    8.8    8.8    8.8    75    4.6   7.0   NNE   0.58  15.0    NE    7.0    8.6    6.8  1013.8  0.00   0.0   0.033   0.000   25.9    35    9.3   25.2   6.88 1.1681    117    1    100.0    5 
19/04/14  19:15    8.7    8.8    8.7    76    4.7  11.0   NNE   0.92  18.0    NE    5.6    8.6    5.4  1013.7  0.00   0.0   0.033   0.000   25.9    35    9.3   25.2   6.88 1.1679    116    1    100.0    5 
19/04/14  19:20    8.7    8.7    8.7    76    4.7  11.0   NNE   0.92  18.0    NE    5.6    8.6    5.4  1013.8  0.00   0.0   0.033   0.000   25.9    35    9.3   25.2   6.88 1.1680    115    1    100.0    5 
19/04/14  19:25    8.7    8.7    8.7    77    4.9   9.0   NNE   0.75  17.0   NNE    6.1    8.6    6.0  1013.7  0.00   0.0   0.034   0.000   25.8    35    9.2   25.2   6.88 1.1682    116    1    100.0    5 
19/04/14  19:30    8.7    8.7    8.7    77    4.9   8.0   NNE   0.67  15.0   NNE    6.4    8.6    6.3  1013.7  0.00   0.0   0.034   0.000   25.8    35    9.2   25.2   6.88 1.1681    117    1    100.0    5 
19/04/14  19:35    8.7    8.7    8.7    77    4.9   9.0   NNE   0.75  17.0   NNE    6.2    8.6    6.1  1013.7  0.00   0.0   0.033   0.000   25.8    35    9.2   25.2   6.88 1.1681    116    1    100.0    5 
19/04/14  19:40    8.7    8.7    8.7    77    4.9  10.0   NNE   0.83  17.0   NNE    5.9    8.6    5.8  1013.5  0.00   0.0   0.033   0.000   25.8    35    9.2   25.1   6.88 1.1683    117    1    100.0    5 
19/04/14  19:45    8.7    8.7    8.7    77    4.9  10.0   NNE   0.83  18.0   NNE    5.9    8.6    5.8  1013.7  0.00   0.0   0.033   0.000   25.8    35    9.2   25.1   6.88 1.1684    115    1    100.0    5 
19/04/14  19:50    8.7    8.7    8.7    77    4.9   7.0   NNE   0.58  15.0   NNE    6.8    8.6    6.7  1013.5  0.00   0.0   0.034   0.000   25.8    35    9.2   25.1   6.88 1.1682    113    1     99.1    5 
19/04/14  19:55    8.7    8.7    8.7    78    5.0  10.0   NNE   0.83  17.0   NNE    5.8    8.6    5.7  1013.4  0.00   0.0   0.034   0.000   25.8    35    9.2   25.1   6.88 1.1682    117    1    100.0    5 
19/04/14  20:00    8.7    8.7    8.7    78    5.0   9.0   NNE   0.75  16.0   NNE    6.1    8.6    6.0  1013.3  0.00   0.0   0.034   0.000   25.7    35    9.1   25.0   6.88 1.1683    115    1    100.0    5 
19/04/14  20:05    8.7    8.7    8.7    78    5.0   8.0   NNE   0.67  13.0   NNE    6.4    8.6    6.3  1013.3  0.00   0.0   0.034   0.000   25.7    35    9.1   25.0   6.88 1.1683    114    1    100.0    5 
19/04/14  20:10    8.7    8.7    8.7    78    5.0   9.0   NNE   0.75  15.0    NE    6.1    8.6    6.0  1013.2  0.00   0.0   0.034   0.000   25.7    35    9.1   25.0   6.88 1.1682    113    1     99.1    5 
19/04/14  20:15    8.7    8.7    8.7    78    5.0   7.0   NNE   0.58  13.0    NE    6.8    8.6    6.7  1013.2  0.00   0.0   0.034   0.000   25.7    35    9.1   24.9   6.89 1.1684    117    1    100.0    5 
19/04/14  20:20    8.7    8.7    8.7    78    5.0   8.0   NNE   0.67  14.0   NNE    6.4    8.6    6.3  1013.1  0.00   0.0   0.034   0.000   25.7    35    9.1   24.9   6.89 1.1683    117    1    100.0    5 
19/04/14  20:25    8.7    8.7    8.7    78    5.0   9.0   NNE   0.75  14.0   NNE    6.1    8.6    6.0  1013.0  0.00   0.0   0.034   0.000   25.7    35    9.1   24.9   6.89 1.1682    117    1    100.0    5 
19/04/14  20:30    8.7    8.7    8.7    78    5.1   8.0     N   0.67  13.0   NNE    6.5    8.6    6.4  1013.0  0.00   0.0   0.033   0.000   25.7    35    9.1   24.9   6.89 1.1682    117    1    100.0    5 
19/04/14  20:35    8.7    8.7    8.7    79    5.3   8.0   NNE   0.67  13.0   NNE    6.5    8.6    6.4  1012.9  0.00   0.0   0.033   0.000   25.6    35    9.0   24.9   6.89 1.1683    116    1    100.0    5 
19/04/14  20:40    8.7    8.7    8.7    79    5.3  10.0     N   0.83  18.0     N    5.9    8.6    5.8  1012.8  0.00   0.0   0.033   0.000   25.6    35    9.0   24.9   6.89 1.1682    115    1    100.0    5 
19/04/14  20:45    8.7    8.7    8.7    79    5.2   9.0   NNE   0.75  16.0   NNE    6.1    8.6    6.0  1012.8  0.00   0.0   0.034   0.000   25.6    35    9.0   24.9   6.89 1.1682    116    1    100.0    5 
19/04/14  20:50    8.7    8.7    8.7    79    5.2   9.0   NNE   0.75  14.0     N    6.1    8.6    6.0  1012.7  0.00   0.0   0.034   0.000   25.6    35    9.0   24.8   6.89 1.1683    118    1    100.0    5 
19/04/14  20:55    8.7    8.7    8.7    79    5.2  10.0   NNE   0.83  16.0    NE    5.8    8.6    5.7  1012.5  0.00   0.0   0.034   0.000   25.6    35    9.0   24.8   6.89 1.1681    115    1    100.0    5 
19/04/14  21:00    8.7    8.7    8.7    79    5.2   9.0   NNE   0.75  15.0   NNE    6.1    8.6    6.0  1012.5  0.00   0.0   0.034   0.000   25.6    35    9.0   24.8   6.89 1.1681    114    1    100.0    5 
19/04/14  21:05    8.7    8.7    8.7    79    5.2   8.0   NNE   0.67  14.0     N    6.4    8.6    6.3  1012.4  0.00   0.0   0.034   0.000   25.5    35    8.9   24.8   6.89 1.1682    116    1    100.0    5 
19/04/14  21:10    8.7    8.7    8.7    79    5.2   9.0   NNE   0.75  15.0   NNE    6.1    8.6    6.0  1012.3  0.00   0.0   0.034   0.000   25.5    35    8.9   24.8   6.89 1.1681    117    1    100.0    5 
19/04/14  21:15    8.7    8.7    8.7    80    5.4  10.0   NNE   0.83  15.0   NNE    5.8    8.6    5.8  1012.3  0.00   0.0   0.034   0.000   25.5    35    8.9   24.8   6.89 1.1681    116    1    100.0    5 
19/04/14  21:20    8.6    8.7    8.6    80    5.4  10.0   NNE   0.83  16.0   NNE    5.8    8.5    5.7  1012.2  0.00   0.0   0.034   0.000   25.4    35    8.9   24.8   6.89 1.1683    117    1    100.0    5 
19/04/14  21:25    8.6    8.7    8.6    80    5.4   9.0   NNE   0.75  14.0   NNE    6.1    8.5    5.9  1012.0  0.00   0.0   0.034   0.000   25.4    35    8.9   24.8   6.89 1.1680    114    1    100.0    5 
19/04/14  21:30    8.6    8.6    8.6    80    5.3   9.0   NNE   0.75  14.0   NNE    6.0    8.4    5.9  1011.9  0.00   0.0   0.034   0.000   25.4    35    8.9   24.8   6.89 1.1679    115    1    100.0    5 
19/04/14  21:35    8.5    8.6    8.5    80    5.2  12.0   NNE   1.00  20.0     N    5.1    8.4    5.0  1011.8  0.00   0.0   0.034   0.000   25.4    35    8.9   24.8   6.89 1.1678    116    1    100.0    5 
19/04/14  21:40    8.5    8.5    8.5    80    5.2  11.0   NNE   0.92  18.0   NNE    5.4    8.4    5.3  1011.7  0.00   0.0   0.034   0.000   25.4    35    8.8   24.7   6.90 1.1680    117    1    100.0    5 
19/04/14  21:45    8.4    8.5    8.4    81    5.4  12.0   NNE   1.00  19.0   NNE    5.1    8.4    5.0  1011.7  0.00   0.0   0.034   0.000   25.3    35    8.8   24.7   6.90 1.1682    116    1    100.0    5 
19/04/14  21:50    8.5    8.5    8.4    81    5.4  12.0     N   1.00  18.0     N    5.1    8.4    5.1  1011.4  0.00   0.0   0.034   0.000   25.3    35    8.8   24.7   6.90 1.1679    116    1    100.0    5 
19/04/14  21:55    8.5    8.5    8.5    81    5.4  10.0     N   0.83  20.0   NNE    5.7    8.4    5.6  1011.3  0.00   0.0   0.034   0.000   25.3    35    8.8   24.7   6.90 1.1678    116    1    100.0    5 
19/04/14  22:00    8.5    8.5    8.4    81    5.4   9.0     N   0.75  16.0     N    5.9    8.4    5.9  1011.3  0.00   0.0   0.034   0.000   25.3    35    8.7   24.6   6.90 1.1680    114    1    100.0    5 
19/04/14  22:05    8.5    8.5    8.5    81    5.4  10.0   NNE   0.83  17.0     N    5.7    8.4    5.6  1011.2  0.00   0.0   0.034   0.000   25.3    35    8.7   24.6   6.90 1.1679    114    1    100.0    5 
19/04/14  22:10    8.5    8.5    8.5    81    5.4  10.0   NNE   0.83  16.0     N    5.7    8.4    5.6  1011.2  0.00   0.0   0.034   0.000   25.3    35    8.7   24.6   6.90 1.1679    117    1    100.0    5 
19/04/14  22:15    8.5    8.5    8.5    81    5.4  10.0     N   0.83  18.0     N    5.7    8.4    5.6  1011.1  0.00   0.0   0.034   0.000   25.2    35    8.7   24.6   6.90 1.1680    116    1    100.0    5 
19/04/14  22:20    8.5    8.6    8.5    81    5.4  10.0   NNE   0.83  22.0   NNE    5.7    8.4    5.6  1011.0  0.00   0.0   0.034   0.000   25.2    35    8.7   24.6   6.90 1.1680    115    1    100.0    5 
19/04/14  22:25    8.6    8.6    8.5    81    5.5  11.0   NNE   0.92  17.0     N    5.4    8.5    5.4  1010.9  0.00   0.0   0.034   0.000   25.2    35    8.6   24.6   6.90 1.1681    114    1    100.0    5 
19/04/14  22:30    8.6    8.6    8.5    81    5.5  12.0   NNE   1.00  21.0     N    5.2    8.5    5.1  1010.7  0.00   0.0   0.034   0.000   25.2    35    8.6   24.6   6.90 1.1678    115    1    100.0    5 
19/04/14  22:35    8.6    8.6    8.6    81    5.5  10.0   NNE   0.83  17.0   NNE    5.7    8.5    5.7  1010.6  0.00   0.0   0.034   0.000   25.2    35    8.6   24.6   6.90 1.1677    117    1    100.0    5 
19/04/14  22:40    8.6    8.6    8.6    81    5.5  12.0   NNE   1.00  17.0   NNE    5.2    8.5    5.1  1010.4  0.00   0.0   0.034   0.000   25.1    35    8.6   24.5   6.91 1.1677    115    1    100.0    5 
19/04/14  22:45    8.6    8.6    8.6    81    5.5   9.0     N   0.75  17.0     N    6.0    8.5    5.9  1010.3  0.00   0.0   0.034   0.000   25.1    35    8.5   24.5   6.91 1.1679    116    1    100.0    5 
19/04/14  22:50    8.6    8.6    8.6    82    5.7  11.0   NNE   0.92  20.0   NNE    5.4    8.5    5.4  1010.1  0.00   0.0   0.034   0.000   25.1    35    8.5   24.5   6.91 1.1676    117    1    100.0    5 
19/04/14  22:55    8.6    8.6    8.6    82    5.7  11.0   NNE   0.92  20.0   NNE    5.4    8.5    5.4  1010.0  0.00   0.0   0.034   0.000   25.1    35    8.5   24.5   6.91 1.1675    116    1    100.0    5 
19/04/14  23:00    8.5    8.6    8.5    82    5.6  14.0     N   1.17  23.0   NNE    4.7    8.4    4.6  1009.8  0.00   0.0   0.034   0.000   25.0    35    8.5   24.4   6.91 1.1675    115    1    100.0    5 
19/04/14  23:05    8.4    8.5    8.4    82    5.5  13.0     N   1.08  21.0    NW    4.8    8.4    4.8  1009.9  0.00   0.0   0.034   0.000   25.0    35    8.5   24.4   6.91 1.1676    117    1    100.0    5 
19/04/14  23:10    8.3    8.4    8.3    82    5.4  11.0     N   0.92  19.0     N    5.2    8.3    5.1  1010.1  0.00   0.0   0.035   0.000   25.0    35    8.5   24.4   6.91 1.1679    112    1     98.2    5 
19/04/14  23:15    8.3    8.3    8.3    82    5.4  11.0     N   0.92  18.0     N    5.1    8.2    5.1  1010.1  0.00   0.0   0.035   0.000   24.9    35    8.4   24.4   6.91 1.1682    116    1    100.0    5 
19/04/14  23:20    8.3    8.3    8.3    83    5.6  10.0   NNE   0.83  18.0   NNE    5.4    8.2    5.3  1010.1  0.00   0.0   0.035   0.000   24.9    35    8.4   24.4   6.91 1.1682    117    1    100.0    5 
19/04/14  23:25    8.3    8.3    8.3    83    5.6  10.0     N   0.83  16.0     N    5.4    8.2    5.3  1010.0  0.00   0.0   0.035   0.000   24.9    35    8.4   24.3   6.91 1.1683    116    1    100.0    5 
19/04/14  23:30    8.3    8.3    8.2    83    5.6  11.0     N   0.92  19.0   NNW    5.1    8.2    5.1  1009.9  0.00   0.0   0.035   0.000   24.9    35    8.4   24.3   6.91 1.1681    117    1    100.0    5 
19/04/14  23:35    8.3    8.3    8.3    84    5.7  11.0     N   0.92  17.0   NNE    5.1    8.3    5.1  1009.8  0.00   0.0   0.035   0.000   24.9    35    8.4   24.3   6.91 1.1680    117    1    100.0    5 
19/04/14  23:40    8.3    8.3    8.3    84    5.7  12.0     N   1.00  19.0   NNW    4.9    8.3    4.9  1009.8  0.00   0.0   0.035   0.000   24.8    35    8.3   24.2   6.92 1.1683    117    1    100.0    5 
19/04/14  23:45    8.3    8.3    8.2    84    5.7  12.0     N   1.00  19.0   NNE    4.9    8.3    4.9  1009.7  0.00   0.0   0.035   0.000   24.8    35    8.3   24.2   6.92 1.1684    116    1    100.0    5 
19/04/14  23:50    8.3    8.3    8.3    84    5.7  11.0     N   0.92  20.0   NNE    5.1    8.3    5.1  1009.6  0.00   0.0   0.035   0.000   24.8    35    8.3   24.2   6.92 1.1683    115    1    100.0    5 
19/04/14  23:55    8.3    8.3    8.3    85    5.9  13.0     N   1.08  19.0     N    4.7    8.3    4.7  1009.5  0.00   0.0   0.035   0.000   24.7    35    8.2   24.1   6.92 1.1685    117    1    100.0    5 
20/04/14  00:00    8.3    8.3    8.3    85    6.0  11.0     N   0.92  17.0   NNE    5.2    8.3    5.2  1009.4  0.00   0.0   0.035   0.000   24.7    35    8.2   24.1   6.92 1.1684    118    1    100.0    5 
20/04/14   0:05    8.4    8.4    8.3    85    6.0  12.0     N   1.00  18.0     N    5.0    8.4    5.0  1009.3  0.00   0.0   0.035   0.000   24.7    35    8.2   24.1   6.92 1.1683    115    1    100.0    5 
20/04/14   0:10    8.4    8.4    8.4    85    6.1  11.0     N   0.92  19.0     N    5.3    8.4    5.3  1009.2  0.00   0.0   0.034   0.000   24.7    35    8.2   24.1   6.92 1.1684    116    1    100.0    5 
20/04/14   0:15    8.5    8.5    8.4    85    6.1  11.0     N   0.92  17.0     N    5.4    8.5    5.4  1009.1  0.00   0.0   0.034   0.000   24.7    35    8.2   24.1   6.92 1.1684    114    1    100.0    5 
20/04/14   0:20    8.5    8.6    8.5    86    6.3  12.0     N   1.00  19.0   NNE    5.1    8.5    5.1  1009.1  0.00   0.0   0.034   0.000   24.7    35    8.2   24.1   6.92 1.1683    115    1    100.0    5 
20/04/14   0:25    8.6    8.6    8.5    86    6.3  12.0     N   1.00  19.0   NNE    5.2    8.6    5.2  1009.0  0.00   0.0   0.034   0.000   24.6    35    8.1   24.0   6.92 1.1685    116    1    100.0    5 
20/04/14   0:30    8.6    8.6    8.6    86    6.4  11.0     N   0.92  19.0   NNE    5.5    8.6    5.5  1008.8  0.00   0.0   0.034   0.000   24.6    35    8.1   23.9   6.93 1.1685    115    1    100.0    5 
20/04/14   0:35    8.6    8.6    8.6    86    6.4  11.0     N   0.92  20.0   NNE    5.5    8.6    5.5  1008.7  0.00   0.0   0.034   0.000   24.6    35    8.1   23.9   6.93 1.1684    117    1    100.0    5 
20/04/14   0:40    8.6    8.6    8.6    86    6.4  10.0     N   0.83  15.0     N    5.8    8.6    5.8  1008.7  0.00   0.0   0.034   0.000   24.6    35    8.1   23.9   6.93 1.1683    117    1    100.0    5 
20/04/14   0:45    8.6    8.6    8.6    86    6.3   9.0     N   0.75  15.0   NNW    6.0    8.6    6.0  1008.5  0.00   0.0   0.034   0.000   24.5    35    8.0   23.8   6.93 1.1683    117    1    100.0    5 
20/04/14   0:50    8.6    8.6    8.6    86    6.3  10.0     N   0.83  15.0   NNE    5.7    8.6    5.7  1008.4  0.00   0.0   0.034   0.000   24.5    35    8.0   23.8   6.93 1.1683    116    1    100.0    5 
20/04/14   0:55    8.6    8.6    8.5    86    6.3  10.0     N   0.83  16.0   NNE    5.7    8.6    5.7  1008.3  0.00   0.0   0.034   0.000   24.4    35    8.0   23.8   6.93 1.1684    115    1    100.0    5 
20/04/14   1:00    8.6    8.6    8.5    86    6.3  11.0     N   0.92  21.0   NNE    5.4    8.6    5.4  1008.2  0.00   0.0   0.034   0.000   24.4    35    8.0   23.8   6.93 1.1683    115    1    100.0    5 
20/04/14   1:05    8.6    8.6    8.6    86    6.4  11.0     N   0.92  21.0     N    5.5    8.6    5.5  1008.2  0.00   0.0   0.034   0.000   24.4    35    7.9   23.7   6.93 1.1685    116    1    100.0    5 
20/04/14   1:10    8.6    8.6    8.6    86    6.4  11.0     N   0.92  18.0   NNE    5.5    8.6    5.5  1008.0  0.00   0.0   0.034   0.000   24.4    35    7.9   23.7   6.93 1.1683    116    1    100.0    5 
20/04/14   1:15    8.6    8.6    8.6    86    6.3  12.0     N   1.00  20.0   NNE    5.2    8.6    5.2  1007.9  0.00   0.0   0.034   0.000   24.3    35    7.9   23.7   6.93 1.1685    115    1    100.0    5 
20/04/14   1:20    8.5    8.6    8.5    86    6.3  12.0     N   1.00  18.0   NNW    5.1    8.5    5.1  1007.9  0.00   0.0   0.034   0.000   24.3    35    7.9   23.7   6.93 1.1684    116    1    100.0    5 
20/04/14   1:25    8.4    8.5    8.4    86    6.2  12.0     N   1.00  20.0   NNE    5.1    8.4    5.1  1007.8  0.00   0.0   0.034   0.000   24.3    35    7.9   23.7   6.93 1.1683    117    1    100.0    5 
20/04/14   1:30    8.4    8.4    8.4    87    6.4  11.0     N   0.92  19.0     N    5.3    8.5    5.3  1007.8  0.00   0.0   0.034   0.000   24.3    35    7.8   23.6   6.94 1.1685    115    1    100.0    5 
20/04/14   1:35    8.4    8.4    8.4    87    6.3  11.0     N   0.92  16.0     N    5.2    8.4    5.3  1007.7  0.00   0.0   0.035   0.000   24.3    35    7.8   23.6   6.94 1.1685    116    1    100.0    5 
20/04/14   1:40    8.5    8.5    8.4    87    6.5  12.0   NNE   1.00  22.0   NNE    5.1    8.6    5.2  1007.5  0.00   0.0   0.034   0.000   24.2    35    7.8   23.6   6.94 1.1684    117    1    100.0    5 
20/04/14   1:45    8.6    8.6    8.5    87    6.5  12.0     N   1.00  18.0   NNE    5.2    8.6    5.2  1007.3  0.00   0.0   0.034   0.000   24.2    35    7.8   23.6   6.94 1.1683    115    1    100.0    5 
20/04/14   1:50    8.7    8.7    8.6    87    6.6  11.0     N   0.92  18.0     N    5.6    8.7    5.6  1007.2  0.00   0.0   0.034   0.000   24.2    35    7.7   23.5   6.94 1.1684    113    1     99.1    5 
20/04/14   1:55    8.7    8.7    8.6    87    6.6  12.0   NNE   1.00  20.0   NNE    5.3    8.7    5.4  1007.0  0.00   0.0   0.034   0.000   24.2    35    7.7   23.5   6.94 1.1682    117    1    100.0    5 
20/04/14   2:00    8.7    8.7    8.7    87    6.7  11.0   NNE   0.92  18.0   NNE    5.6    8.8    5.7  1007.0  0.00   0.0   0.033   0.000   24.1    35    7.7   23.4   6.94 1.1684    115    1    100.0    5 
20/04/14   2:05    8.7    8.7    8.7    87    6.7  11.0   NNE   0.92  19.0     N    5.6    8.8    5.7  1007.0  0.00   0.0   0.033   0.000   24.1    35    7.7   23.4   6.94 1.1684    116    1    100.0    5 
20/04/14   2:10    8.7    8.7    8.7    87    6.7  11.0     N   0.92  18.0     N    5.6    8.8    5.7  1006.9  0.00   0.0   0.033   0.000   24.1    35    7.6   23.4   6.94 1.1686    115    1    100.0    5 
20/04/14   2:15    8.7    8.7    8.7    87    6.6  14.0     N   1.17  22.0   NNE    4.9    8.7    4.9  1006.6  0.00   0.0   0.034   0.000   24.1    35    7.6   23.4   6.94 1.1683    116    1    100.0    5 
20/04/14   2:20    8.7    8.7    8.7    87    6.7  10.0     N   0.83  17.0    NE    5.9    8.8    5.9  1006.6  0.00   0.0   0.033   0.000   24.1    35    7.6   23.4   6.94 1.1683    116    1    100.0    5 
20/04/14   2:25    8.7    8.7    8.7    87    6.7  12.0     N   1.00  19.0   NNE    5.4    8.8    5.4  1006.4  0.00   0.0   0.033   0.000   24.0    35    7.6   23.3   6.95 1.1683    117    1    100.0    5 
20/04/14   2:30    8.8    8.8    8.7    88    6.9  12.0     N   1.00  22.0   NNE    5.4    8.8    5.5  1006.3  0.00   0.0   0.033   0.000   24.0    35    7.6   23.3   6.95 1.1681    116    1    100.0    5 
20/04/14   2:35    8.8    8.8    8.8    88    7.0  13.0   NNE   1.08  22.0   NNE    5.3    8.9    5.3  1006.2  0.00   0.0   0.033   0.000   23.9    35    7.5   23.3   6.95 1.1683    118    1    100.0    5 
20/04/14   2:40    8.9    8.9    8.8    88    7.0  13.0   NNE   1.08  22.0   NNE    5.3    8.9    5.4  1006.1  0.00   0.0   0.033   0.000   24.0    35    7.6   23.3   6.95 1.1679    115    1    100.0    5 
20/04/14   2:45    8.9    8.9    8.9    88    7.0  12.0   NNE   1.00  23.0   NNE    5.6    8.9    5.6  1006.0  0.00   0.0   0.033   0.000   23.9    35    7.5   23.3   6.95 1.1680    116    1    100.0    5 
20/04/14   2:50    8.9    8.9    8.9    88    7.1  12.0   NNE   1.00  23.0   NNE    5.6    9.0    5.7  1006.0  0.00   0.0   0.033   0.000   23.9    35    7.5   23.2   6.95 1.1683    117    1    100.0    5 
20/04/14   2:55    9.0    9.0    8.9    88    7.1  15.0   NNE   1.25  23.0   NNE    5.1    9.1    5.1  1006.0  0.00   0.0   0.032   0.000   23.9    35    7.5   23.2   6.95 1.1683    117    1    100.0    5 
20/04/14   3:00    9.1    9.1    9.0    88    7.2  15.0   NNE   1.25  25.0   NNE    5.2    9.1    5.2  1005.9  0.00   0.0   0.032   0.000   23.9    35    7.5   23.2   6.95 1.1682    115    1    100.0    5 
20/04/14   3:05    9.2    9.2    9.1    88    7.3  14.0   NNE   1.17  21.0   NNE    5.4    9.3    5.6  1005.8  0.00   0.0   0.032   0.000   23.8    35    7.4   23.2   6.95 1.1684    116    1    100.0    5 
20/04/14   3:10    9.2    9.2    9.2    88    7.3  15.0   NNE   1.25  23.0   NNE    5.3    9.3    5.4  1005.6  0.00   0.0   0.032   0.000   23.8    35    7.4   23.1   6.95 1.1684    117    1    100.0    5 
20/04/14   3:15    9.3    9.3    9.2    88    7.4  15.0   NNE   1.25  23.0    NE    5.5    9.4    5.6  1005.5  0.00   0.0   0.031   0.000   23.8    35    7.4   23.1   6.95 1.1683    116    1    100.0    5 
20/04/14   3:20    9.4    9.4    9.3    88    7.5  15.0   NNE   1.25  30.0    NE    5.6    9.5    5.7  1005.5  0.00   0.0   0.031   0.000   23.8    35    7.4   23.1   6.95 1.1682    116    1    100.0    5 
20/04/14   3:25    9.4    9.4    9.4    88    7.6  15.0   NNE   1.25  25.0   NNE    5.6    9.6    5.7  1005.3  0.00   0.0   0.031   0.000   23.7    35    7.3   23.1   6.96 1.1683    115    1    100.0    5 
20/04/14   3:30    9.5    9.5    9.4    88    7.6  14.0   NNE   1.17  24.0   NNE    5.8    9.6    5.9  1005.4  0.00   0.0   0.031   0.000   23.7    35    7.3   23.0   6.96 1.1686    116    1    100.0    5 
20/04/14   3:35    9.6    9.6    9.5    88    7.7  14.0   NNE   1.17  24.0   NNE    5.9    9.7    6.0  1005.5  0.00   0.0   0.030   0.000   23.7    35    7.3   23.0   6.96 1.1687    117    1    100.0    5 
20/04/14   3:40    9.6    9.6    9.5    88    7.7  14.0   NNE   1.17  22.0    NE    5.9    9.7    6.0  1005.3  0.00   0.0   0.030   0.000   23.7    35    7.3   23.0   6.96 1.1685    117    1    100.0    5 
20/04/14   3:45    9.6    9.6    9.6    88    7.7  15.0   NNE   1.25  24.0    NE    5.8    9.7    5.9  1005.1  0.00   0.0   0.030   0.000   23.6    35    7.2   22.9   6.96 1.1686    117    1    100.0    5 
20/04/14   3:50    9.6    9.6    9.6    88    7.7  15.0   NNE   1.25  23.0   NNE    5.8    9.7    5.9  1005.1  0.00   0.0   0.030   0.000   23.6    35    7.2   22.9   6.96 1.1686    116    1    100.0    5 
20/04/14   3:55    9.7    9.7    9.6    88    7.8  13.0   NNE   1.08  24.0   ENE    6.2    9.8    6.3  1005.0  0.00   0.0   0.030   0.000   23.6    35    7.2   22.9   6.96 1.1684    116    1    100.0    5 
20/04/14   4:00    9.7    9.7    9.6    88    7.8  14.0   NNE   1.17  23.0   NNE    6.0    9.8    6.1  1005.1  0.00   0.0   0.030   0.000   23.6    35    7.2   22.9   6.96 1.1686    117    1    100.0    5 
20/04/14   4:05    9.7    9.7    9.7    88    7.8  14.0   NNE   1.17  23.0   NNE    6.1    9.8    6.2  1005.0  0.00   0.0   0.030   0.000   23.6    35    7.2   22.8   6.96 1.1687    117    1    100.0    5 
20/04/14   4:10    9.7    9.7    9.7    88    7.8  12.0   NNE   1.00  18.0   NNE    6.6    9.8    6.7  1004.9  0.00   0.0   0.030   0.000   23.6    35    7.2   22.8   6.96 1.1685    116    1    100.0    5 
20/04/14   4:15    9.8    9.8    9.7    88    7.9  13.0   NNE   1.08  20.0     N    6.3    9.9    6.4  1004.9  0.00   0.0   0.030   0.000   23.5    35    7.1   22.8   6.96 1.1688    116    1    100.0    5 
20/04/14   4:20    9.8    9.8    9.8    88    7.9  12.0   NNE   1.00  18.0     N    6.6    9.9    6.7  1005.0  0.00   0.0   0.030   0.000   23.5    35    7.1   22.8   6.96 1.1689    115    1    100.0    5 
20/04/14   4:25    9.8    9.8    9.8    88    7.9  12.0   NNE   1.00  18.0   NNE    6.6    9.9    6.7  1005.0  0.00   0.0   0.030   0.000   23.4    35    7.1   22.7   6.97 1.1692    115    1    100.0    5 
20/04/14   4:30    9.8    9.8    9.8    88    7.9  13.0   NNE   1.08  23.0    NE    6.4    9.9    6.5  1005.0  0.00   0.0   0.030   0.000   23.4    35    7.1   22.7   6.97 1.1692    116    1    100.0    5 
20/04/14   4:35    9.8    9.8    9.8    88    7.9  14.0   NNE   1.17  23.0   NNE    6.2    9.9    6.3  1005.0  0.00   0.0   0.030   0.000   23.4    35    7.1   22.7   6.97 1.1695    115    1    100.0    5 
20/04/14   4:40    9.9    9.9    9.8    88    8.0  14.0   NNE   1.17  22.0    NE    6.3   10.0    6.4  1004.9  0.00   0.0   0.029   0.000   23.4    35    7.1   22.7   6.97 1.1694    118    1    100.0    5 
20/04/14   4:45    9.9    9.9    9.8    88    8.0  13.0   NNE   1.08  22.0    NE    6.5   10.0    6.6  1005.0  0.00   0.0   0.029   0.000   23.4    35    7.1   22.7   6.97 1.1695    114    1    100.0    5 
20/04/14   4:50    9.9    9.9    9.9    88    8.0  14.0   NNE   1.17  24.0   NNE    6.3   10.1    6.4  1005.1  0.00   0.0   0.029   0.000   23.3    35    7.0   22.6   6.97 1.1698    117    1    100.0    5 
20/04/14   4:55    9.9    9.9    9.9    88    8.0  12.0   NNE   1.00  19.0    NE    6.8   10.1    6.9  1005.3  0.00   0.0   0.029   0.000   23.3    35    7.0   22.6   6.97 1.1700    115    1    100.0    5 
20/04/14   5:00   10.0   10.0    9.9    88    8.1  13.0   NNE   1.08  20.0   NNE    6.6   10.1    6.7  1005.2  0.00   0.0   0.029   0.000   23.3    35    7.0   22.6   6.97 1.1699    116    1    100.0    5 
20/04/14   5:05   10.0   10.0   10.0    89    8.3  10.0   NNE   0.83  17.0     N    7.4   10.2    7.6  1004.7  0.00   0.0   0.029   0.000   23.3    35    7.0   22.6   6.97 1.1697    117    1    100.0    5 
20/04/14   5:10   10.0   10.0   10.0    89    8.3  10.0   NNE   0.83  15.0    NE    7.4   10.2    7.6  1004.9  0.00   0.0   0.029   0.000   23.2    35    6.9   22.4   6.97 1.1701    117    1    100.0    5 
20/04/14   5:15   10.0   10.0   10.0    89    8.3   9.0   NNE   0.75  18.0   NNE    7.7   10.2    7.9  1004.8  0.00   0.0   0.029   0.000   23.3    35    7.0   22.6   6.97 1.1697    115    1    100.0    5 
20/04/14   5:20   10.1   10.1   10.0    90    8.5   9.0   NNE   0.75  14.0   NNE    7.8   10.2    7.9  1004.6  0.00   0.0   0.029   0.000   23.2    35    6.9   22.4   6.97 1.1698    116    1    100.0    5 
20/04/14   5:25   10.1   10.1   10.1    90    8.5  11.0   NNE   0.92  21.0     N    7.2   10.3    7.4  1004.4  0.00   0.0   0.029   0.000   23.2    35    6.9   22.4   6.97 1.1695    116    1    100.0    5 
20/04/14   5:30   10.3   10.3   10.1    90    8.7  11.0   NNE   0.92  21.0     N    7.4   10.4    7.6  1004.3  0.00   0.0   0.028   0.000   23.2    36    7.3   22.5   7.10 1.1691    115    1    100.0    5 
20/04/14   5:35   10.3   10.3   10.3    90    8.8  13.0   NNE   1.08  20.0   NNE    7.0   10.4    7.1  1004.3  0.00   0.0   0.028   0.000   23.2    36    7.3   22.5   7.10 1.1690    117    1    100.0    5 
20/04/14   5:40   10.3   10.3   10.3    90    8.8  12.0   NNE   1.00  19.0   NNE    7.2   10.4    7.3  1004.0  0.00   0.0   0.028   0.000   23.2    36    7.3   22.4   7.10 1.1690    117    1    100.0    5 
20/04/14   5:45   10.4   10.4   10.3    90    8.9  14.0   NNE   1.17  24.0   NNE    6.9   10.6    7.1  1004.0  0.00   0.0   0.027   0.000   23.2    36    7.3   22.4   7.10 1.1690    117    1    100.0    5 
20/04/14   5:50   10.5   10.5   10.4    90    8.9  10.0   NNE   0.83  15.0     N    8.0   10.6    8.1  1004.0  0.00   0.0   0.027   0.000   23.1    36    7.2   22.3   7.11 1.1692    117    1    100.0    5 
20/04/14   5:55   10.7   10.7   10.6    90    9.1  12.0   NNE   1.00  19.0   NNE    7.7   10.8    7.8  1004.0  0.00   0.0   0.026   0.000   23.1    36    7.2   22.3   7.11 1.1692    116    1    100.0    5 
20/04/14   6:00   10.8   10.8   10.7    90    9.2  11.0   NNE   0.92  17.0   NNE    8.0   10.9    8.1  1003.9  0.00   0.0   0.026   0.000   23.1    36    7.2   22.3   7.11 1.1691    116    1    100.0    5 
20/04/14   6:05   10.9   10.9   10.8    90    9.3  11.0   NNE   0.92  19.0   NNE    8.1   11.0    8.2  1003.8  0.00   0.0   0.026   0.000   23.1    36    7.2   22.3   7.11 1.1690    117    1    100.0    5 
20/04/14   6:10   11.0   11.0   10.9    90    9.4  10.0   NNE   0.83  17.0   NNE    8.6   11.1    8.7  1003.7  0.00   0.0   0.025   0.000   23.1    36    7.2   22.3   7.11 1.1689    115    1    100.0    5 
20/04/14   6:15   11.1   11.1   11.0    90    9.5  11.0   NNE   0.92  18.0   NNE    8.4   11.2    8.5  1003.7  0.00   0.0   0.025   0.000   23.1    36    7.2   22.3   7.11 1.1688    116    1    100.0    5 
20/04/14   6:20   11.1   11.1   11.1    89    9.3  12.0   NNE   1.00  20.0   NNE    8.1   11.2    8.2  1003.7  0.00   0.0   0.025   0.000   23.1    36    7.2   22.3   7.11 1.1689    117    1    100.0    5 
20/04/14   6:25   11.2   11.2   11.1    90    9.6  10.0   NNE   0.83  16.0    NE    8.7   11.3    8.8  1003.7  0.00   0.0   0.025   0.000   23.1    36    7.2   22.3   7.11 1.1689    117    1    100.0    5 
20/04/14   6:30   11.2   11.2   11.2    89    9.4   9.0   NNE   0.75  15.0    NE    9.1   11.3    9.2  1004.0  0.00   0.0   0.025   0.000   23.1    36    7.2   22.3   7.11 1.1692    114    1    100.0    5 
20/04/14   6:35   11.2   11.2   11.2    89    9.4  10.0   NNE   0.83  16.0    NE    8.7   11.3    8.8  1003.8  0.00   0.0   0.025   0.000   23.1    36    7.2   22.3   7.11 1.1690    116    1    100.0    5 
20/04/14   6:40   11.2   11.2   11.1    89    9.4  10.0    NE   0.83  16.0    NE    8.7   11.3    8.8  1003.8  0.00   0.0   0.025   0.000   23.1    36    7.2   22.3   7.11 1.1690    117    1    100.0    5 
20/04/14   6:45   11.2   11.2   11.2    89    9.4  11.0   NNE   0.92  20.0     N    8.4   11.3    8.6  1003.9  0.00   0.0   0.025   0.000   23.1    36    7.2   22.2   7.11 1.1693    116    1    100.0    5 
20/04/14   6:50   11.2   11.2   11.2    89    9.5  11.0   NNE   0.92  18.0   NNE    8.5   11.3    8.6  1003.9  0.00   0.0   0.025   0.000   23.1    36    7.2   22.3   7.11 1.1692    118    1    100.0    5 
20/04/14   6:55   11.2   11.2   11.2    89    9.5   9.0    NE   0.75  17.0    NE    9.1   11.3    9.2  1003.8  0.00   0.0   0.025   0.000   23.1    36    7.2   22.3   7.11 1.1690    116    1    100.0    5 
20/04/14   7:00   11.2   11.2   11.2    89    9.5  10.0   NNE   0.83  20.0    NE    8.8   11.3    8.8  1003.9  0.00   0.0   0.025   0.000   23.1    36    7.2   22.3   7.11 1.1691    117    1    100.0    5 
20/04/14   7:05   11.3   11.3   11.2    89    9.5   8.0    NE   0.67  16.0   NNE    9.6   11.3    9.7  1003.8  0.00   0.0   0.024   0.000   23.1    37    7.6   22.4   7.28 1.1687    117    1    100.0    5 
20/04/14   7:10   11.3   11.3   11.3    89    9.5  11.0   NNE   0.92  16.0   NNE    8.6   11.3    8.6  1003.7  0.00   0.0   0.024   0.000   23.1    37    7.6   22.4   7.28 1.1685    117    1    100.0    5 
20/04/14   7:15   11.3   11.3   11.3    89    9.6  11.0   NNE   0.92  17.0   NNE    8.6   11.4    8.7  1003.6  0.00   0.0   0.024   0.000   23.1    37    7.6   22.4   7.28 1.1685    115    1    100.0    5 
20/04/14   7:20   11.4   11.4   11.3    89    9.6   9.0    NE   0.75  17.0    NE    9.3   11.4    9.4  1004.0  0.00   0.0   0.024   0.000   23.1    37    7.6   22.4   7.28 1.1689    116    1    100.0    5 
20/04/14   7:25   11.4   11.4   11.4    89    9.7   9.0   NNE   0.75  15.0   NNE    9.4   11.5    9.4  1003.2  0.20   0.0   0.024   0.000   23.1    37    7.6   22.4   7.28 1.1680    117    1    100.0    5 
20/04/14   7:30   11.6   11.6   11.4    90   10.0   8.0   NNE   0.67  18.0   NNE   10.0   11.7   10.1  1003.3  0.20   2.8   0.023   0.000   23.1    37    7.6   22.4   7.28 1.1681    116    1    100.0    5 
78488